<?xml version="1.0" encoding="UTF-8" standalone="no" ?>
<gpx xmlns="http://www.topografix.com/GPX/1/1" xmlns:xsi="http://www.w3.org/2001/XMLSchema-instance" xsi:schemaLocation="http://www.topografix.com/GPX/1/1 http://www.topografix.com/GPX/1/1/gpx.xsd" version="1.1" creator="VisuGPX - https://www.visugpx.com">
  <metadata>
    <name>GTR Etape 4</name>
    <desc><![CDATA[

de St Pierre la palud à Mornant]]></desc>
  </metadata>
  <trk>
    <name><![CDATA[GTR Etape 4]]></name>
    <desc><![CDATA[de St Pierre la palud à Mornant]]></desc>
    <extensions>
      <line xmlns="http://www.topografix.com/GPX/gpx_style/0/2">
        <color>30b0b0</color>
        <width>6</width>
      </line>
    </extensions>
    <trkseg>
      <trkpt lat="45.78095" lon="4.59035">
        <ele>349</ele>
        <time>2019-06-28T22:14:30Z</time>
      </trkpt>
      <trkpt lat="45.78095" lon="4.59035">
        <ele>349</ele>
        <time>2019-06-28T22:14:30Z</time>
      </trkpt>
      <trkpt lat="45.78068" lon="4.59051">
        <ele>352</ele>
        <time>2019-06-28T22:14:37Z</time>
      </trkpt>
      <trkpt lat="45.78031" lon="4.5909">
        <ele>359</ele>
        <time>2019-06-28T22:14:48Z</time>
      </trkpt>
      <trkpt lat="45.78019" lon="4.59092">
        <ele>359</ele>
        <time>2019-06-28T22:14:51Z</time>
      </trkpt>
      <trkpt lat="45.78009" lon="4.59088">
        <ele>358</ele>
        <time>2019-06-28T22:14:53Z</time>
      </trkpt>
      <trkpt lat="45.77963" lon="4.59052">
        <ele>359</ele>
        <time>2019-06-28T22:15:05Z</time>
      </trkpt>
      <trkpt lat="45.77912" lon="4.59035">
        <ele>364</ele>
        <time>2019-06-28T22:15:18Z</time>
      </trkpt>
      <trkpt lat="45.77865" lon="4.59016">
        <ele>367</ele>
        <time>2019-06-28T22:15:29Z</time>
      </trkpt>
      <trkpt lat="45.77804" lon="4.5901">
        <ele>372</ele>
        <time>2019-06-28T22:15:43Z</time>
      </trkpt>
      <trkpt lat="45.77779" lon="4.59032">
        <ele>378</ele>
        <time>2019-06-28T22:15:50Z</time>
      </trkpt>
      <trkpt lat="45.7773" lon="4.59046">
        <ele>384</ele>
        <time>2019-06-28T22:16:02Z</time>
      </trkpt>
      <trkpt lat="45.77692" lon="4.59063">
        <ele>389</ele>
        <time>2019-06-28T22:16:11Z</time>
      </trkpt>
      <trkpt lat="45.77668" lon="4.5907">
        <ele>391</ele>
        <time>2019-06-28T22:16:17Z</time>
      </trkpt>
      <trkpt lat="45.77615" lon="4.59096">
        <ele>398</ele>
        <time>2019-06-28T22:16:30Z</time>
      </trkpt>
      <trkpt lat="45.77602" lon="4.59091">
        <ele>397</ele>
        <time>2019-06-28T22:16:33Z</time>
      </trkpt>
      <trkpt lat="45.77562" lon="4.59054">
        <ele>398</ele>
        <time>2019-06-28T22:16:44Z</time>
      </trkpt>
      <trkpt lat="45.77496" lon="4.59012">
        <ele>404</ele>
        <time>2019-06-28T22:17:01Z</time>
      </trkpt>
      <trkpt lat="45.77417" lon="4.58985">
        <ele>412</ele>
        <time>2019-06-28T22:17:20Z</time>
      </trkpt>
      <trkpt lat="45.77402" lon="4.58977">
        <ele>413</ele>
        <time>2019-06-28T22:17:24Z</time>
      </trkpt>
      <trkpt lat="45.77377" lon="4.58975">
        <ele>415</ele>
        <time>2019-06-28T22:17:30Z</time>
      </trkpt>
      <trkpt lat="45.77324" lon="4.58996">
        <ele>422</ele>
        <time>2019-06-28T22:17:42Z</time>
      </trkpt>
      <trkpt lat="45.77304" lon="4.58997">
        <ele>424</ele>
        <time>2019-06-28T22:17:47Z</time>
      </trkpt>
      <trkpt lat="45.77224" lon="4.58978">
        <ele>431</ele>
        <time>2019-06-28T22:18:06Z</time>
      </trkpt>
      <trkpt lat="45.77196" lon="4.58981">
        <ele>434</ele>
        <time>2019-06-28T22:18:13Z</time>
      </trkpt>
      <trkpt lat="45.7713" lon="4.59007">
        <ele>441</ele>
        <time>2019-06-28T22:18:29Z</time>
      </trkpt>
      <trkpt lat="45.77115" lon="4.59009">
        <ele>443</ele>
        <time>2019-06-28T22:18:32Z</time>
      </trkpt>
      <trkpt lat="45.77071" lon="4.5904">
        <ele>451</ele>
        <time>2019-06-28T22:18:44Z</time>
      </trkpt>
      <trkpt lat="45.77054" lon="4.59062">
        <ele>454</ele>
        <time>2019-06-28T22:18:49Z</time>
      </trkpt>
      <trkpt lat="45.77024" lon="4.59083">
        <ele>455</ele>
        <time>2019-06-28T22:18:57Z</time>
      </trkpt>
      <trkpt lat="45.76984" lon="4.59097">
        <ele>458</ele>
        <time>2019-06-28T22:19:06Z</time>
      </trkpt>
      <trkpt lat="45.76972" lon="4.5913">
        <ele>458</ele>
        <time>2019-06-28T22:19:12Z</time>
      </trkpt>
      <trkpt lat="45.76954" lon="4.59224">
        <ele>459</ele>
        <time>2019-06-28T22:19:28Z</time>
      </trkpt>
      <trkpt lat="45.76954" lon="4.59321">
        <ele>464</ele>
        <time>2019-06-28T22:19:44Z</time>
      </trkpt>
      <trkpt lat="45.76959" lon="4.59368">
        <ele>467</ele>
        <time>2019-06-28T22:19:52Z</time>
      </trkpt>
      <trkpt lat="45.76979" lon="4.59454">
        <ele>478</ele>
        <time>2019-06-28T22:20:07Z</time>
      </trkpt>
      <trkpt lat="45.76987" lon="4.59551">
        <ele>486</ele>
        <time>2019-06-28T22:20:22Z</time>
      </trkpt>
      <trkpt lat="45.7699" lon="4.59622">
        <ele>491</ele>
        <time>2019-06-28T22:20:34Z</time>
      </trkpt>
      <trkpt lat="45.76983" lon="4.59662">
        <ele>492</ele>
        <time>2019-06-28T22:20:41Z</time>
      </trkpt>
      <trkpt lat="45.76964" lon="4.59733">
        <ele>495</ele>
        <time>2019-06-28T22:20:53Z</time>
      </trkpt>
      <trkpt lat="45.76944" lon="4.59748">
        <ele>495</ele>
        <time>2019-06-28T22:20:58Z</time>
      </trkpt>
      <trkpt lat="45.7687" lon="4.59757">
        <ele>505</ele>
        <time>2019-06-28T22:21:16Z</time>
      </trkpt>
      <trkpt lat="45.76834" lon="4.59737">
        <ele>509</ele>
        <time>2019-06-28T22:21:25Z</time>
      </trkpt>
      <trkpt lat="45.76796" lon="4.59698">
        <ele>504</ele>
        <time>2019-06-28T22:21:36Z</time>
      </trkpt>
      <trkpt lat="45.76756" lon="4.59691">
        <ele>507</ele>
        <time>2019-06-28T22:21:45Z</time>
      </trkpt>
      <trkpt lat="45.76723" lon="4.59699">
        <ele>511</ele>
        <time>2019-06-28T22:21:53Z</time>
      </trkpt>
      <trkpt lat="45.7669" lon="4.59743">
        <ele>522</ele>
        <time>2019-06-28T22:22:03Z</time>
      </trkpt>
      <trkpt lat="45.76652" lon="4.59754">
        <ele>525</ele>
        <time>2019-06-28T22:22:12Z</time>
      </trkpt>
      <trkpt lat="45.76605" lon="4.59744">
        <ele>526</ele>
        <time>2019-06-28T22:22:24Z</time>
      </trkpt>
      <trkpt lat="45.76557" lon="4.59766">
        <ele>535</ele>
        <time>2019-06-28T22:22:35Z</time>
      </trkpt>
      <trkpt lat="45.7652" lon="4.59764">
        <ele>539</ele>
        <time>2019-06-28T22:22:44Z</time>
      </trkpt>
      <trkpt lat="45.76525" lon="4.59789">
        <ele>544</ele>
        <time>2019-06-28T22:22:48Z</time>
      </trkpt>
      <trkpt lat="45.76477" lon="4.59831">
        <ele>560</ele>
        <time>2019-06-28T22:23:01Z</time>
      </trkpt>
      <trkpt lat="45.76415" lon="4.59858">
        <ele>571</ele>
        <time>2019-06-28T22:23:16Z</time>
      </trkpt>
      <trkpt lat="45.76387" lon="4.59877">
        <ele>571</ele>
        <time>2019-06-28T22:23:24Z</time>
      </trkpt>
      <trkpt lat="45.76369" lon="4.59923">
        <ele>575</ele>
        <time>2019-06-28T22:23:32Z</time>
      </trkpt>
      <trkpt lat="45.76371" lon="4.59957">
        <ele>579</ele>
        <time>2019-06-28T22:23:38Z</time>
      </trkpt>
      <trkpt lat="45.7634" lon="4.60149">
        <ele>594</ele>
        <time>2019-06-28T22:24:10Z</time>
      </trkpt>
      <trkpt lat="45.7633" lon="4.60184">
        <ele>599</ele>
        <time>2019-06-28T22:24:16Z</time>
      </trkpt>
      <trkpt lat="45.76317" lon="4.60335">
        <ele>620</ele>
        <time>2019-06-28T22:24:41Z</time>
      </trkpt>
      <trkpt lat="45.76293" lon="4.60489">
        <ele>628</ele>
        <time>2019-06-28T22:25:07Z</time>
      </trkpt>
      <trkpt lat="45.7628" lon="4.60531">
        <ele>633</ele>
        <time>2019-06-28T22:25:14Z</time>
      </trkpt>
      <trkpt lat="45.76245" lon="4.60715">
        <ele>644</ele>
        <time>2019-06-28T22:25:45Z</time>
      </trkpt>
      <trkpt lat="45.76236" lon="4.60787">
        <ele>649</ele>
        <time>2019-06-28T22:25:57Z</time>
      </trkpt>
      <trkpt lat="45.76231" lon="4.60866">
        <ele>652</ele>
        <time>2019-06-28T22:26:10Z</time>
      </trkpt>
      <trkpt lat="45.76219" lon="4.60907">
        <ele>656</ele>
        <time>2019-06-28T22:26:17Z</time>
      </trkpt>
      <trkpt lat="45.76117" lon="4.60986">
        <ele>669</ele>
        <time>2019-06-28T22:26:44Z</time>
      </trkpt>
      <trkpt lat="45.76089" lon="4.61018">
        <ele>667</ele>
        <time>2019-06-28T22:26:53Z</time>
      </trkpt>
      <trkpt lat="45.76065" lon="4.61027">
        <ele>670</ele>
        <time>2019-06-28T22:26:59Z</time>
      </trkpt>
      <trkpt lat="45.76027" lon="4.61033">
        <ele>678</ele>
        <time>2019-06-28T22:27:07Z</time>
      </trkpt>
      <trkpt lat="45.75975" lon="4.6108">
        <ele>684</ele>
        <time>2019-06-28T22:27:22Z</time>
      </trkpt>
      <trkpt lat="45.75952" lon="4.61114">
        <ele>688</ele>
        <time>2019-06-28T22:27:30Z</time>
      </trkpt>
      <trkpt lat="45.75924" lon="4.61137">
        <ele>695</ele>
        <time>2019-06-28T22:27:37Z</time>
      </trkpt>
      <trkpt lat="45.75899" lon="4.61181">
        <ele>697</ele>
        <time>2019-06-28T22:27:46Z</time>
      </trkpt>
      <trkpt lat="45.75868" lon="4.61258">
        <ele>697</ele>
        <time>2019-06-28T22:28:01Z</time>
      </trkpt>
      <trkpt lat="45.75812" lon="4.61337">
        <ele>699</ele>
        <time>2019-06-28T22:28:19Z</time>
      </trkpt>
      <trkpt lat="45.7577" lon="4.61369">
        <ele>705</ele>
        <time>2019-06-28T22:28:30Z</time>
      </trkpt>
      <trkpt lat="45.75742" lon="4.61399">
        <ele>713</ele>
        <time>2019-06-28T22:28:38Z</time>
      </trkpt>
      <trkpt lat="45.75727" lon="4.61445">
        <ele>720</ele>
        <time>2019-06-28T22:28:47Z</time>
      </trkpt>
      <trkpt lat="45.75718" lon="4.61494">
        <ele>725</ele>
        <time>2019-06-28T22:28:55Z</time>
      </trkpt>
      <trkpt lat="45.75714" lon="4.61532">
        <ele>728</ele>
        <time>2019-06-28T22:29:01Z</time>
      </trkpt>
      <trkpt lat="45.75712" lon="4.61632">
        <ele>733</ele>
        <time>2019-06-28T22:29:17Z</time>
      </trkpt>
      <trkpt lat="45.75705" lon="4.61661">
        <ele>736</ele>
        <time>2019-06-28T22:29:22Z</time>
      </trkpt>
      <trkpt lat="45.75697" lon="4.61673">
        <ele>740</ele>
        <time>2019-06-28T22:29:25Z</time>
      </trkpt>
      <trkpt lat="45.75689" lon="4.6167">
        <ele>742</ele>
        <time>2019-06-28T22:29:27Z</time>
      </trkpt>
      <trkpt lat="45.75661" lon="4.61602">
        <ele>749</ele>
        <time>2019-06-28T22:29:40Z</time>
      </trkpt>
      <trkpt lat="45.75654" lon="4.61598">
        <ele>750</ele>
        <time>2019-06-28T22:29:42Z</time>
      </trkpt>
      <trkpt lat="45.75648" lon="4.61603">
        <ele>752</ele>
        <time>2019-06-28T22:29:43Z</time>
      </trkpt>
      <trkpt lat="45.75638" lon="4.61659">
        <ele>756</ele>
        <time>2019-06-28T22:29:53Z</time>
      </trkpt>
      <trkpt lat="45.75634" lon="4.61672">
        <ele>757</ele>
        <time>2019-06-28T22:29:55Z</time>
      </trkpt>
      <trkpt lat="45.7562" lon="4.61698">
        <ele>759</ele>
        <time>2019-06-28T22:30:00Z</time>
      </trkpt>
      <trkpt lat="45.75624" lon="4.61764">
        <ele>756</ele>
        <time>2019-06-28T22:30:11Z</time>
      </trkpt>
      <trkpt lat="45.75606" lon="4.6179">
        <ele>757</ele>
        <time>2019-06-28T22:30:17Z</time>
      </trkpt>
      <trkpt lat="45.756" lon="4.61793">
        <ele>757</ele>
        <time>2019-06-28T22:30:19Z</time>
      </trkpt>
      <trkpt lat="45.75594" lon="4.61792">
        <ele>757</ele>
        <time>2019-06-28T22:30:20Z</time>
      </trkpt>
      <trkpt lat="45.75587" lon="4.61784">
        <ele>758</ele>
        <time>2019-06-28T22:30:22Z</time>
      </trkpt>
      <trkpt lat="45.75534" lon="4.61703">
        <ele>763</ele>
        <time>2019-06-28T22:30:40Z</time>
      </trkpt>
      <trkpt lat="45.75521" lon="4.61689">
        <ele>765</ele>
        <time>2019-06-28T22:30:44Z</time>
      </trkpt>
      <trkpt lat="45.75476" lon="4.61652">
        <ele>771</ele>
        <time>2019-06-28T22:30:56Z</time>
      </trkpt>
      <trkpt lat="45.75433" lon="4.61636">
        <ele>774</ele>
        <time>2019-06-28T22:31:07Z</time>
      </trkpt>
      <trkpt lat="45.75415" lon="4.61627">
        <ele>776</ele>
        <time>2019-06-28T22:31:11Z</time>
      </trkpt>
      <trkpt lat="45.75368" lon="4.61596">
        <ele>780</ele>
        <time>2019-06-28T22:31:23Z</time>
      </trkpt>
      <trkpt lat="45.75349" lon="4.61587">
        <ele>781</ele>
        <time>2019-06-28T22:31:28Z</time>
      </trkpt>
      <trkpt lat="45.75315" lon="4.6158">
        <ele>781</ele>
        <time>2019-06-28T22:31:36Z</time>
      </trkpt>
      <trkpt lat="45.75298" lon="4.61574">
        <ele>780</ele>
        <time>2019-06-28T22:31:40Z</time>
      </trkpt>
      <trkpt lat="45.75287" lon="4.61545">
        <ele>780</ele>
        <time>2019-06-28T22:31:45Z</time>
      </trkpt>
      <trkpt lat="45.75276" lon="4.61491">
        <ele>781</ele>
        <time>2019-06-28T22:31:54Z</time>
      </trkpt>
      <trkpt lat="45.75272" lon="4.61381">
        <ele>776</ele>
        <time>2019-06-28T22:32:12Z</time>
      </trkpt>
      <trkpt lat="45.75263" lon="4.61308">
        <ele>771</ele>
        <time>2019-06-28T22:32:24Z</time>
      </trkpt>
      <trkpt lat="45.75238" lon="4.61199">
        <ele>761</ele>
        <time>2019-06-28T22:32:43Z</time>
      </trkpt>
      <trkpt lat="45.75229" lon="4.61182">
        <ele>760</ele>
        <time>2019-06-28T22:32:47Z</time>
      </trkpt>
      <trkpt lat="45.75178" lon="4.61123">
        <ele>756</ele>
        <time>2019-06-28T22:33:02Z</time>
      </trkpt>
      <trkpt lat="45.75175" lon="4.61114">
        <ele>756</ele>
        <time>2019-06-28T22:33:04Z</time>
      </trkpt>
      <trkpt lat="45.75152" lon="4.61074">
        <ele>756</ele>
        <time>2019-06-28T22:33:12Z</time>
      </trkpt>
      <trkpt lat="45.75136" lon="4.61032">
        <ele>752</ele>
        <time>2019-06-28T22:33:20Z</time>
      </trkpt>
      <trkpt lat="45.75104" lon="4.61023">
        <ele>752</ele>
        <time>2019-06-28T22:33:27Z</time>
      </trkpt>
      <trkpt lat="45.75018" lon="4.61035">
        <ele>753</ele>
        <time>2019-06-28T22:33:48Z</time>
      </trkpt>
      <trkpt lat="45.74989" lon="4.61046">
        <ele>752</ele>
        <time>2019-06-28T22:33:55Z</time>
      </trkpt>
      <trkpt lat="45.74977" lon="4.61053">
        <ele>752</ele>
        <time>2019-06-28T22:33:58Z</time>
      </trkpt>
      <trkpt lat="45.74947" lon="4.61057">
        <ele>750</ele>
        <time>2019-06-28T22:34:05Z</time>
      </trkpt>
      <trkpt lat="45.74933" lon="4.61065">
        <ele>749</ele>
        <time>2019-06-28T22:34:08Z</time>
      </trkpt>
      <trkpt lat="45.74892" lon="4.61106">
        <ele>744</ele>
        <time>2019-06-28T22:34:20Z</time>
      </trkpt>
      <trkpt lat="45.74867" lon="4.61139">
        <ele>739</ele>
        <time>2019-06-28T22:34:28Z</time>
      </trkpt>
      <trkpt lat="45.74853" lon="4.6115">
        <ele>738</ele>
        <time>2019-06-28T22:34:32Z</time>
      </trkpt>
      <trkpt lat="45.74831" lon="4.61162">
        <ele>737</ele>
        <time>2019-06-28T22:34:37Z</time>
      </trkpt>
      <trkpt lat="45.74821" lon="4.61158">
        <ele>737</ele>
        <time>2019-06-28T22:34:39Z</time>
      </trkpt>
      <trkpt lat="45.74802" lon="4.61145">
        <ele>737</ele>
        <time>2019-06-28T22:34:44Z</time>
      </trkpt>
      <trkpt lat="45.74789" lon="4.61146">
        <ele>736</ele>
        <time>2019-06-28T22:34:47Z</time>
      </trkpt>
      <trkpt lat="45.74781" lon="4.61167">
        <ele>738</ele>
        <time>2019-06-28T22:34:51Z</time>
      </trkpt>
      <trkpt lat="45.74771" lon="4.61147">
        <ele>736</ele>
        <time>2019-06-28T22:34:55Z</time>
      </trkpt>
      <trkpt lat="45.74693" lon="4.61058">
        <ele>731</ele>
        <time>2019-06-28T22:35:19Z</time>
      </trkpt>
      <trkpt lat="45.74654" lon="4.61003">
        <ele>725</ele>
        <time>2019-06-28T22:35:31Z</time>
      </trkpt>
      <trkpt lat="45.74613" lon="4.60917">
        <ele>724</ele>
        <time>2019-06-28T22:35:48Z</time>
      </trkpt>
      <trkpt lat="45.74601" lon="4.60905">
        <ele>726</ele>
        <time>2019-06-28T22:35:52Z</time>
      </trkpt>
      <trkpt lat="45.74559" lon="4.60821">
        <ele>727</ele>
        <time>2019-06-28T22:36:09Z</time>
      </trkpt>
      <trkpt lat="45.74535" lon="4.6076">
        <ele>727</ele>
        <time>2019-06-28T22:36:20Z</time>
      </trkpt>
      <trkpt lat="45.74493" lon="4.6071">
        <ele>736</ele>
        <time>2019-06-28T22:36:33Z</time>
      </trkpt>
      <trkpt lat="45.74456" lon="4.60693">
        <ele>746</ele>
        <time>2019-06-28T22:36:42Z</time>
      </trkpt>
      <trkpt lat="45.74358" lon="4.60621">
        <ele>766</ele>
        <time>2019-06-28T22:37:08Z</time>
      </trkpt>
      <trkpt lat="45.74323" lon="4.60586">
        <ele>771</ele>
        <time>2019-06-28T22:37:18Z</time>
      </trkpt>
      <trkpt lat="45.74251" lon="4.60567">
        <ele>785</ele>
        <time>2019-06-28T22:37:35Z</time>
      </trkpt>
      <trkpt lat="45.74234" lon="4.6055">
        <ele>789</ele>
        <time>2019-06-28T22:37:39Z</time>
      </trkpt>
      <trkpt lat="45.74222" lon="4.60524">
        <ele>789</ele>
        <time>2019-06-28T22:37:45Z</time>
      </trkpt>
      <trkpt lat="45.74206" lon="4.60508">
        <ele>793</ele>
        <time>2019-06-28T22:37:49Z</time>
      </trkpt>
      <trkpt lat="45.74167" lon="4.60443">
        <ele>802</ele>
        <time>2019-06-28T22:38:03Z</time>
      </trkpt>
      <trkpt lat="45.74151" lon="4.60406">
        <ele>806</ele>
        <time>2019-06-28T22:38:10Z</time>
      </trkpt>
      <trkpt lat="45.74125" lon="4.60369">
        <ele>816</ele>
        <time>2019-06-28T22:38:19Z</time>
      </trkpt>
      <trkpt lat="45.74082" lon="4.6037">
        <ele>829</ele>
        <time>2019-06-28T22:38:29Z</time>
      </trkpt>
      <trkpt lat="45.74053" lon="4.60355">
        <ele>834</ele>
        <time>2019-06-28T22:38:36Z</time>
      </trkpt>
      <trkpt lat="45.74037" lon="4.60361">
        <ele>836</ele>
        <time>2019-06-28T22:38:40Z</time>
      </trkpt>
      <trkpt lat="45.74022" lon="4.60358">
        <ele>839</ele>
        <time>2019-06-28T22:38:43Z</time>
      </trkpt>
      <trkpt lat="45.7397" lon="4.60321">
        <ele>840</ele>
        <time>2019-06-28T22:38:57Z</time>
      </trkpt>
      <trkpt lat="45.73868" lon="4.60258">
        <ele>832</ele>
        <time>2019-06-28T22:39:23Z</time>
      </trkpt>
      <trkpt lat="45.73802" lon="4.60221">
        <ele>827</ele>
        <time>2019-06-28T22:39:39Z</time>
      </trkpt>
      <trkpt lat="45.73782" lon="4.60316">
        <ele>829</ele>
        <time>2019-06-28T22:39:56Z</time>
      </trkpt>
      <trkpt lat="45.73777" lon="4.60371">
        <ele>826</ele>
        <time>2019-06-28T22:40:05Z</time>
      </trkpt>
      <trkpt lat="45.73759" lon="4.60408">
        <ele>822</ele>
        <time>2019-06-28T22:40:12Z</time>
      </trkpt>
      <trkpt lat="45.73705" lon="4.60463">
        <ele>821</ele>
        <time>2019-06-28T22:40:27Z</time>
      </trkpt>
      <trkpt lat="45.73684" lon="4.6049">
        <ele>819</ele>
        <time>2019-06-28T22:40:34Z</time>
      </trkpt>
      <trkpt lat="45.73631" lon="4.60543">
        <ele>814</ele>
        <time>2019-06-28T22:40:49Z</time>
      </trkpt>
      <trkpt lat="45.73585" lon="4.6057">
        <ele>813</ele>
        <time>2019-06-28T22:41:01Z</time>
      </trkpt>
      <trkpt lat="45.73561" lon="4.60595">
        <ele>810</ele>
        <time>2019-06-28T22:41:08Z</time>
      </trkpt>
      <trkpt lat="45.73505" lon="4.60613">
        <ele>806</ele>
        <time>2019-06-28T22:41:21Z</time>
      </trkpt>
      <trkpt lat="45.73464" lon="4.60641">
        <ele>799</ele>
        <time>2019-06-28T22:41:32Z</time>
      </trkpt>
      <trkpt lat="45.7342" lon="4.60661">
        <ele>793</ele>
        <time>2019-06-28T22:41:42Z</time>
      </trkpt>
      <trkpt lat="45.73393" lon="4.60658">
        <ele>789</ele>
        <time>2019-06-28T22:41:49Z</time>
      </trkpt>
      <trkpt lat="45.73354" lon="4.60634">
        <ele>788</ele>
        <time>2019-06-28T22:41:59Z</time>
      </trkpt>
      <trkpt lat="45.73264" lon="4.60601">
        <ele>774</ele>
        <time>2019-06-28T22:42:20Z</time>
      </trkpt>
      <trkpt lat="45.73225" lon="4.60581">
        <ele>770</ele>
        <time>2019-06-28T22:42:30Z</time>
      </trkpt>
      <trkpt lat="45.73192" lon="4.60572">
        <ele>764</ele>
        <time>2019-06-28T22:42:38Z</time>
      </trkpt>
      <trkpt lat="45.73151" lon="4.60569">
        <ele>757</ele>
        <time>2019-06-28T22:42:48Z</time>
      </trkpt>
      <trkpt lat="45.73105" lon="4.60569">
        <ele>753</ele>
        <time>2019-06-28T22:42:58Z</time>
      </trkpt>
      <trkpt lat="45.73087" lon="4.60557">
        <ele>752</ele>
        <time>2019-06-28T22:43:03Z</time>
      </trkpt>
      <trkpt lat="45.73066" lon="4.60525">
        <ele>756</ele>
        <time>2019-06-28T22:43:10Z</time>
      </trkpt>
      <trkpt lat="45.73048" lon="4.60513">
        <ele>759</ele>
        <time>2019-06-28T22:43:15Z</time>
      </trkpt>
      <trkpt lat="45.73029" lon="4.60526">
        <ele>760</ele>
        <time>2019-06-28T22:43:20Z</time>
      </trkpt>
      <trkpt lat="45.73001" lon="4.6058">
        <ele>760</ele>
        <time>2019-06-28T22:43:31Z</time>
      </trkpt>
      <trkpt lat="45.73031" lon="4.60705">
        <ele>751</ele>
        <time>2019-06-28T22:43:52Z</time>
      </trkpt>
      <trkpt lat="45.73053" lon="4.60769">
        <ele>746</ele>
        <time>2019-06-28T22:44:04Z</time>
      </trkpt>
      <trkpt lat="45.73002" lon="4.60875">
        <ele>760</ele>
        <time>2019-06-28T22:44:25Z</time>
      </trkpt>
      <trkpt lat="45.72959" lon="4.60892">
        <ele>757</ele>
        <time>2019-06-28T22:44:35Z</time>
      </trkpt>
      <trkpt lat="45.72929" lon="4.60873">
        <ele>760</ele>
        <time>2019-06-28T22:44:43Z</time>
      </trkpt>
      <trkpt lat="45.72902" lon="4.60833">
        <ele>764</ele>
        <time>2019-06-28T22:44:52Z</time>
      </trkpt>
      <trkpt lat="45.72877" lon="4.60812">
        <ele>760</ele>
        <time>2019-06-28T22:44:59Z</time>
      </trkpt>
      <trkpt lat="45.72823" lon="4.60787">
        <ele>755</ele>
        <time>2019-06-28T22:45:12Z</time>
      </trkpt>
      <trkpt lat="45.72795" lon="4.60786">
        <ele>753</ele>
        <time>2019-06-28T22:45:18Z</time>
      </trkpt>
      <trkpt lat="45.72682" lon="4.6082">
        <ele>743</ele>
        <time>2019-06-28T22:45:45Z</time>
      </trkpt>
      <trkpt lat="45.72655" lon="4.60854">
        <ele>736</ele>
        <time>2019-06-28T22:45:54Z</time>
      </trkpt>
      <trkpt lat="45.72595" lon="4.60894">
        <ele>725</ele>
        <time>2019-06-28T22:46:09Z</time>
      </trkpt>
      <trkpt lat="45.72533" lon="4.60967">
        <ele>705</ele>
        <time>2019-06-28T22:46:28Z</time>
      </trkpt>
      <trkpt lat="45.72522" lon="4.60995">
        <ele>702</ele>
        <time>2019-06-28T22:46:33Z</time>
      </trkpt>
      <trkpt lat="45.72508" lon="4.61084">
        <ele>697</ele>
        <time>2019-06-28T22:46:48Z</time>
      </trkpt>
      <trkpt lat="45.72498" lon="4.61129">
        <ele>691</ele>
        <time>2019-06-28T22:46:56Z</time>
      </trkpt>
      <trkpt lat="45.72496" lon="4.61179">
        <ele>687</ele>
        <time>2019-06-28T22:47:04Z</time>
      </trkpt>
      <trkpt lat="45.72489" lon="4.61203">
        <ele>683</ele>
        <time>2019-06-28T22:47:08Z</time>
      </trkpt>
      <trkpt lat="45.72465" lon="4.61237">
        <ele>677</ele>
        <time>2019-06-28T22:47:16Z</time>
      </trkpt>
      <trkpt lat="45.72418" lon="4.61289">
        <ele>672</ele>
        <time>2019-06-28T22:47:30Z</time>
      </trkpt>
      <trkpt lat="45.72429" lon="4.6125">
        <ele>673</ele>
        <time>2019-06-28T22:47:37Z</time>
      </trkpt>
      <trkpt lat="45.72447" lon="4.61102">
        <ele>675</ele>
        <time>2019-06-28T22:48:01Z</time>
      </trkpt>
      <trkpt lat="45.72444" lon="4.61063">
        <ele>674</ele>
        <time>2019-06-28T22:48:08Z</time>
      </trkpt>
      <trkpt lat="45.72452" lon="4.60991">
        <ele>675</ele>
        <time>2019-06-28T22:48:20Z</time>
      </trkpt>
      <trkpt lat="45.72457" lon="4.60898">
        <ele>675</ele>
        <time>2019-06-28T22:48:35Z</time>
      </trkpt>
      <trkpt lat="45.72475" lon="4.60755">
        <ele>688</ele>
        <time>2019-06-28T22:48:59Z</time>
      </trkpt>
      <trkpt lat="45.72472" lon="4.60714">
        <ele>696</ele>
        <time>2019-06-28T22:49:05Z</time>
      </trkpt>
      <trkpt lat="45.72455" lon="4.60711">
        <ele>695</ele>
        <time>2019-06-28T22:49:09Z</time>
      </trkpt>
      <trkpt lat="45.72422" lon="4.60719">
        <ele>689</ele>
        <time>2019-06-28T22:49:17Z</time>
      </trkpt>
      <trkpt lat="45.72337" lon="4.60729">
        <ele>682</ele>
        <time>2019-06-28T22:49:37Z</time>
      </trkpt>
      <trkpt lat="45.72296" lon="4.60709">
        <ele>681</ele>
        <time>2019-06-28T22:49:47Z</time>
      </trkpt>
      <trkpt lat="45.72186" lon="4.60621">
        <ele>681</ele>
        <time>2019-06-28T22:50:17Z</time>
      </trkpt>
      <trkpt lat="45.72165" lon="4.60592">
        <ele>679</ele>
        <time>2019-06-28T22:50:23Z</time>
      </trkpt>
      <trkpt lat="45.72155" lon="4.60561">
        <ele>680</ele>
        <time>2019-06-28T22:50:29Z</time>
      </trkpt>
      <trkpt lat="45.7213" lon="4.60444">
        <ele>680</ele>
        <time>2019-06-28T22:50:49Z</time>
      </trkpt>
      <trkpt lat="45.72111" lon="4.60409">
        <ele>675</ele>
        <time>2019-06-28T22:50:56Z</time>
      </trkpt>
      <trkpt lat="45.72106" lon="4.60395">
        <ele>673</ele>
        <time>2019-06-28T22:50:59Z</time>
      </trkpt>
      <trkpt lat="45.72123" lon="4.60288">
        <ele>681</ele>
        <time>2019-06-28T22:51:17Z</time>
      </trkpt>
      <trkpt lat="45.72123" lon="4.60256">
        <ele>683</ele>
        <time>2019-06-28T22:51:22Z</time>
      </trkpt>
      <trkpt lat="45.72094" lon="4.60195">
        <ele>684</ele>
        <time>2019-06-28T22:51:34Z</time>
      </trkpt>
      <trkpt lat="45.72082" lon="4.60136">
        <ele>694</ele>
        <time>2019-06-28T22:51:44Z</time>
      </trkpt>
      <trkpt lat="45.72073" lon="4.6012">
        <ele>698</ele>
        <time>2019-06-28T22:51:47Z</time>
      </trkpt>
      <trkpt lat="45.72034" lon="4.60117">
        <ele>694</ele>
        <time>2019-06-28T22:51:56Z</time>
      </trkpt>
      <trkpt lat="45.7196" lon="4.60121">
        <ele>683</ele>
        <time>2019-06-28T22:52:14Z</time>
      </trkpt>
      <trkpt lat="45.71924" lon="4.60112">
        <ele>680</ele>
        <time>2019-06-28T22:52:22Z</time>
      </trkpt>
      <trkpt lat="45.71904" lon="4.60078">
        <ele>681</ele>
        <time>2019-06-28T22:52:29Z</time>
      </trkpt>
      <trkpt lat="45.71894" lon="4.60036">
        <ele>680</ele>
        <time>2019-06-28T22:52:37Z</time>
      </trkpt>
      <trkpt lat="45.71888" lon="4.59912">
        <ele>681</ele>
        <time>2019-06-28T22:52:57Z</time>
      </trkpt>
      <trkpt lat="45.71909" lon="4.59796">
        <ele>687</ele>
        <time>2019-06-28T22:53:16Z</time>
      </trkpt>
      <trkpt lat="45.71906" lon="4.59753">
        <ele>686</ele>
        <time>2019-06-28T22:53:23Z</time>
      </trkpt>
      <trkpt lat="45.719" lon="4.59715">
        <ele>688</ele>
        <time>2019-06-28T22:53:30Z</time>
      </trkpt>
      <trkpt lat="45.71882" lon="4.59668">
        <ele>690</ele>
        <time>2019-06-28T22:53:39Z</time>
      </trkpt>
      <trkpt lat="45.71865" lon="4.5966">
        <ele>690</ele>
        <time>2019-06-28T22:53:43Z</time>
      </trkpt>
      <trkpt lat="45.71844" lon="4.59658">
        <ele>689</ele>
        <time>2019-06-28T22:53:48Z</time>
      </trkpt>
      <trkpt lat="45.71798" lon="4.59673">
        <ele>693</ele>
        <time>2019-06-28T22:53:59Z</time>
      </trkpt>
      <trkpt lat="45.71744" lon="4.59702">
        <ele>696</ele>
        <time>2019-06-28T22:54:12Z</time>
      </trkpt>
      <trkpt lat="45.71704" lon="4.59713">
        <ele>697</ele>
        <time>2019-06-28T22:54:22Z</time>
      </trkpt>
      <trkpt lat="45.71538" lon="4.5981">
        <ele>681</ele>
        <time>2019-06-28T22:55:03Z</time>
      </trkpt>
      <trkpt lat="45.71517" lon="4.59806">
        <ele>681</ele>
        <time>2019-06-28T22:55:08Z</time>
      </trkpt>
      <trkpt lat="45.71491" lon="4.59778">
        <ele>683</ele>
        <time>2019-06-28T22:55:16Z</time>
      </trkpt>
      <trkpt lat="45.71472" lon="4.59744">
        <ele>685</ele>
        <time>2019-06-28T22:55:23Z</time>
      </trkpt>
      <trkpt lat="45.71457" lon="4.59728">
        <ele>684</ele>
        <time>2019-06-28T22:55:27Z</time>
      </trkpt>
      <trkpt lat="45.71435" lon="4.59691">
        <ele>683</ele>
        <time>2019-06-28T22:55:35Z</time>
      </trkpt>
      <trkpt lat="45.7142" lon="4.59645">
        <ele>682</ele>
        <time>2019-06-28T22:55:44Z</time>
      </trkpt>
      <trkpt lat="45.71412" lon="4.59595">
        <ele>680</ele>
        <time>2019-06-28T22:55:52Z</time>
      </trkpt>
      <trkpt lat="45.71421" lon="4.59489">
        <ele>686</ele>
        <time>2019-06-28T22:56:09Z</time>
      </trkpt>
      <trkpt lat="45.71413" lon="4.59307">
        <ele>685</ele>
        <time>2019-06-28T22:56:39Z</time>
      </trkpt>
      <trkpt lat="45.71423" lon="4.59236">
        <ele>690</ele>
        <time>2019-06-28T22:56:51Z</time>
      </trkpt>
      <trkpt lat="45.71422" lon="4.59199">
        <ele>692</ele>
        <time>2019-06-28T22:56:57Z</time>
      </trkpt>
      <trkpt lat="45.71417" lon="4.59182">
        <ele>691</ele>
        <time>2019-06-28T22:57:00Z</time>
      </trkpt>
      <trkpt lat="45.71378" lon="4.59152">
        <ele>691</ele>
        <time>2019-06-28T22:57:10Z</time>
      </trkpt>
      <trkpt lat="45.71362" lon="4.59127">
        <ele>698</ele>
        <time>2019-06-28T22:57:16Z</time>
      </trkpt>
      <trkpt lat="45.71333" lon="4.59118">
        <ele>699</ele>
        <time>2019-06-28T22:57:23Z</time>
      </trkpt>
      <trkpt lat="45.71306" lon="4.59123">
        <ele>700</ele>
        <time>2019-06-28T22:57:29Z</time>
      </trkpt>
      <trkpt lat="45.71286" lon="4.59133">
        <ele>698</ele>
        <time>2019-06-28T22:57:34Z</time>
      </trkpt>
      <trkpt lat="45.71251" lon="4.59143">
        <ele>698</ele>
        <time>2019-06-28T22:57:42Z</time>
      </trkpt>
      <trkpt lat="45.71163" lon="4.59191">
        <ele>699</ele>
        <time>2019-06-28T22:58:04Z</time>
      </trkpt>
      <trkpt lat="45.71142" lon="4.59213">
        <ele>689</ele>
        <time>2019-06-28T22:58:11Z</time>
      </trkpt>
      <trkpt lat="45.7112" lon="4.59244">
        <ele>677</ele>
        <time>2019-06-28T22:58:18Z</time>
      </trkpt>
      <trkpt lat="45.71097" lon="4.59244">
        <ele>674</ele>
        <time>2019-06-28T22:58:23Z</time>
      </trkpt>
      <trkpt lat="45.71073" lon="4.59188">
        <ele>685</ele>
        <time>2019-06-28T22:58:34Z</time>
      </trkpt>
      <trkpt lat="45.71024" lon="4.59153">
        <ele>684</ele>
        <time>2019-06-28T22:58:47Z</time>
      </trkpt>
      <trkpt lat="45.71011" lon="4.59147">
        <ele>683</ele>
        <time>2019-06-28T22:58:50Z</time>
      </trkpt>
      <trkpt lat="45.7087" lon="4.58978">
        <ele>702</ele>
        <time>2019-06-28T22:59:33Z</time>
      </trkpt>
      <trkpt lat="45.70822" lon="4.58935">
        <ele>701</ele>
        <time>2019-06-28T22:59:46Z</time>
      </trkpt>
      <trkpt lat="45.70811" lon="4.58917">
        <ele>702</ele>
        <time>2019-06-28T22:59:50Z</time>
      </trkpt>
      <trkpt lat="45.70802" lon="4.58907">
        <ele>703</ele>
        <time>2019-06-28T22:59:53Z</time>
      </trkpt>
      <trkpt lat="45.70792" lon="4.58911">
        <ele>704</ele>
        <time>2019-06-28T22:59:55Z</time>
      </trkpt>
      <trkpt lat="45.70788" lon="4.5892">
        <ele>704</ele>
        <time>2019-06-28T22:59:57Z</time>
      </trkpt>
      <trkpt lat="45.70801" lon="4.58966">
        <ele>704</ele>
        <time>2019-06-28T23:00:05Z</time>
      </trkpt>
      <trkpt lat="45.70821" lon="4.58999">
        <ele>701</ele>
        <time>2019-06-28T23:00:12Z</time>
      </trkpt>
      <trkpt lat="45.70825" lon="4.59023">
        <ele>702</ele>
        <time>2019-06-28T23:00:16Z</time>
      </trkpt>
      <trkpt lat="45.70803" lon="4.59033">
        <ele>706</ele>
        <time>2019-06-28T23:00:21Z</time>
      </trkpt>
      <trkpt lat="45.70788" lon="4.59033">
        <ele>708</ele>
        <time>2019-06-28T23:00:25Z</time>
      </trkpt>
      <trkpt lat="45.70774" lon="4.59045">
        <ele>711</ele>
        <time>2019-06-28T23:00:29Z</time>
      </trkpt>
      <trkpt lat="45.70766" lon="4.59038">
        <ele>712</ele>
        <time>2019-06-28T23:00:31Z</time>
      </trkpt>
      <trkpt lat="45.70739" lon="4.58929">
        <ele>711</ele>
        <time>2019-06-28T23:00:50Z</time>
      </trkpt>
      <trkpt lat="45.70725" lon="4.5892">
        <ele>713</ele>
        <time>2019-06-28T23:00:53Z</time>
      </trkpt>
      <trkpt lat="45.70711" lon="4.58903">
        <ele>717</ele>
        <time>2019-06-28T23:00:58Z</time>
      </trkpt>
      <trkpt lat="45.70715" lon="4.58821">
        <ele>715</ele>
        <time>2019-06-28T23:01:11Z</time>
      </trkpt>
      <trkpt lat="45.70709" lon="4.58753">
        <ele>717</ele>
        <time>2019-06-28T23:01:22Z</time>
      </trkpt>
      <trkpt lat="45.70689" lon="4.58656">
        <ele>719</ele>
        <time>2019-06-28T23:01:39Z</time>
      </trkpt>
      <trkpt lat="45.70683" lon="4.58545">
        <ele>716</ele>
        <time>2019-06-28T23:01:57Z</time>
      </trkpt>
      <trkpt lat="45.70677" lon="4.58509">
        <ele>717</ele>
        <time>2019-06-28T23:02:03Z</time>
      </trkpt>
      <trkpt lat="45.7068" lon="4.58408">
        <ele>722</ele>
        <time>2019-06-28T23:02:19Z</time>
      </trkpt>
      <trkpt lat="45.70692" lon="4.58302">
        <ele>727</ele>
        <time>2019-06-28T23:02:37Z</time>
      </trkpt>
      <trkpt lat="45.70694" lon="4.58234">
        <ele>730</ele>
        <time>2019-06-28T23:02:48Z</time>
      </trkpt>
      <trkpt lat="45.70666" lon="4.58106">
        <ele>739</ele>
        <time>2019-06-28T23:03:10Z</time>
      </trkpt>
      <trkpt lat="45.7064" lon="4.58026">
        <ele>744</ele>
        <time>2019-06-28T23:03:24Z</time>
      </trkpt>
      <trkpt lat="45.70608" lon="4.57964">
        <ele>749</ele>
        <time>2019-06-28T23:03:37Z</time>
      </trkpt>
      <trkpt lat="45.70589" lon="4.5792">
        <ele>752</ele>
        <time>2019-06-28T23:03:45Z</time>
      </trkpt>
      <trkpt lat="45.70574" lon="4.57898">
        <ele>755</ele>
        <time>2019-06-28T23:03:50Z</time>
      </trkpt>
      <trkpt lat="45.70558" lon="4.57865">
        <ele>759</ele>
        <time>2019-06-28T23:03:57Z</time>
      </trkpt>
      <trkpt lat="45.7051" lon="4.57783">
        <ele>770</ele>
        <time>2019-06-28T23:04:14Z</time>
      </trkpt>
      <trkpt lat="45.70474" lon="4.57707">
        <ele>777</ele>
        <time>2019-06-28T23:04:29Z</time>
      </trkpt>
      <trkpt lat="45.70417" lon="4.57703">
        <ele>780</ele>
        <time>2019-06-28T23:04:43Z</time>
      </trkpt>
      <trkpt lat="45.70385" lon="4.57696">
        <ele>774</ele>
        <time>2019-06-28T23:04:50Z</time>
      </trkpt>
      <trkpt lat="45.70379" lon="4.57681">
        <ele>773</ele>
        <time>2019-06-28T23:04:53Z</time>
      </trkpt>
      <trkpt lat="45.70299" lon="4.5757">
        <ele>769</ele>
        <time>2019-06-28T23:05:19Z</time>
      </trkpt>
      <trkpt lat="45.70282" lon="4.5754">
        <ele>767</ele>
        <time>2019-06-28T23:05:25Z</time>
      </trkpt>
      <trkpt lat="45.70271" lon="4.57503">
        <ele>767</ele>
        <time>2019-06-28T23:05:32Z</time>
      </trkpt>
      <trkpt lat="45.70244" lon="4.57255">
        <ele>764</ele>
        <time>2019-06-28T23:06:13Z</time>
      </trkpt>
      <trkpt lat="45.70249" lon="4.57137">
        <ele>775</ele>
        <time>2019-06-28T23:06:32Z</time>
      </trkpt>
      <trkpt lat="45.70249" lon="4.57103">
        <ele>778</ele>
        <time>2019-06-28T23:06:38Z</time>
      </trkpt>
      <trkpt lat="45.70244" lon="4.57048">
        <ele>783</ele>
        <time>2019-06-28T23:06:47Z</time>
      </trkpt>
      <trkpt lat="45.70236" lon="4.57009">
        <ele>786</ele>
        <time>2019-06-28T23:06:53Z</time>
      </trkpt>
      <trkpt lat="45.70214" lon="4.56928">
        <ele>791</ele>
        <time>2019-06-28T23:07:07Z</time>
      </trkpt>
      <trkpt lat="45.70205" lon="4.56871">
        <ele>797</ele>
        <time>2019-06-28T23:07:17Z</time>
      </trkpt>
      <trkpt lat="45.70188" lon="4.56817">
        <ele>802</ele>
        <time>2019-06-28T23:07:27Z</time>
      </trkpt>
      <trkpt lat="45.70159" lon="4.56777">
        <ele>808</ele>
        <time>2019-06-28T23:07:36Z</time>
      </trkpt>
      <trkpt lat="45.70128" lon="4.56755">
        <ele>816</ele>
        <time>2019-06-28T23:07:44Z</time>
      </trkpt>
      <trkpt lat="45.70106" lon="4.5679">
        <ele>810</ele>
        <time>2019-06-28T23:07:52Z</time>
      </trkpt>
      <trkpt lat="45.70075" lon="4.56871">
        <ele>798</ele>
        <time>2019-06-28T23:08:07Z</time>
      </trkpt>
      <trkpt lat="45.70025" lon="4.56943">
        <ele>793</ele>
        <time>2019-06-28T23:08:23Z</time>
      </trkpt>
      <trkpt lat="45.7" lon="4.56964">
        <ele>793</ele>
        <time>2019-06-28T23:08:30Z</time>
      </trkpt>
      <trkpt lat="45.69988" lon="4.56981">
        <ele>792</ele>
        <time>2019-06-28T23:08:34Z</time>
      </trkpt>
      <trkpt lat="45.69933" lon="4.57004">
        <ele>806</ele>
        <time>2019-06-28T23:08:47Z</time>
      </trkpt>
      <trkpt lat="45.69866" lon="4.57182">
        <ele>789</ele>
        <time>2019-06-28T23:09:20Z</time>
      </trkpt>
      <trkpt lat="45.69838" lon="4.57285">
        <ele>774</ele>
        <time>2019-06-28T23:09:38Z</time>
      </trkpt>
      <trkpt lat="45.69828" lon="4.573">
        <ele>773</ele>
        <time>2019-06-28T23:09:42Z</time>
      </trkpt>
      <trkpt lat="45.69763" lon="4.57322">
        <ele>785</ele>
        <time>2019-06-28T23:09:57Z</time>
      </trkpt>
      <trkpt lat="45.69739" lon="4.5737">
        <ele>779</ele>
        <time>2019-06-28T23:10:07Z</time>
      </trkpt>
      <trkpt lat="45.69689" lon="4.57453">
        <ele>774</ele>
        <time>2019-06-28T23:10:25Z</time>
      </trkpt>
      <trkpt lat="45.69659" lon="4.57495">
        <ele>772</ele>
        <time>2019-06-28T23:10:35Z</time>
      </trkpt>
      <trkpt lat="45.69625" lon="4.57527">
        <ele>773</ele>
        <time>2019-06-28T23:10:44Z</time>
      </trkpt>
      <trkpt lat="45.6958" lon="4.57562">
        <ele>775</ele>
        <time>2019-06-28T23:10:56Z</time>
      </trkpt>
      <trkpt lat="45.6954" lon="4.57562">
        <ele>779</ele>
        <time>2019-06-28T23:11:06Z</time>
      </trkpt>
      <trkpt lat="45.69495" lon="4.57557">
        <ele>784</ele>
        <time>2019-06-28T23:11:16Z</time>
      </trkpt>
      <trkpt lat="45.69483" lon="4.57582">
        <ele>782</ele>
        <time>2019-06-28T23:11:21Z</time>
      </trkpt>
      <trkpt lat="45.69457" lon="4.57595">
        <ele>783</ele>
        <time>2019-06-28T23:11:27Z</time>
      </trkpt>
      <trkpt lat="45.69433" lon="4.57602">
        <ele>785</ele>
        <time>2019-06-28T23:11:33Z</time>
      </trkpt>
      <trkpt lat="45.69384" lon="4.57682">
        <ele>785</ele>
        <time>2019-06-28T23:11:51Z</time>
      </trkpt>
      <trkpt lat="45.69335" lon="4.57727">
        <ele>787</ele>
        <time>2019-06-28T23:12:04Z</time>
      </trkpt>
      <trkpt lat="45.69256" lon="4.57823">
        <ele>779</ele>
        <time>2019-06-28T23:12:28Z</time>
      </trkpt>
      <trkpt lat="45.69223" lon="4.57846">
        <ele>777</ele>
        <time>2019-06-28T23:12:37Z</time>
      </trkpt>
      <trkpt lat="45.69167" lon="4.57858">
        <ele>774</ele>
        <time>2019-06-28T23:12:50Z</time>
      </trkpt>
      <trkpt lat="45.69149" lon="4.57858">
        <ele>772</ele>
        <time>2019-06-28T23:12:54Z</time>
      </trkpt>
      <trkpt lat="45.69126" lon="4.5787">
        <ele>769</ele>
        <time>2019-06-28T23:13:00Z</time>
      </trkpt>
      <trkpt lat="45.69115" lon="4.57897">
        <ele>768</ele>
        <time>2019-06-28T23:13:05Z</time>
      </trkpt>
      <trkpt lat="45.6911" lon="4.57937">
        <ele>767</ele>
        <time>2019-06-28T23:13:12Z</time>
      </trkpt>
      <trkpt lat="45.69102" lon="4.57964">
        <ele>765</ele>
        <time>2019-06-28T23:13:17Z</time>
      </trkpt>
      <trkpt lat="45.69081" lon="4.57983">
        <ele>763</ele>
        <time>2019-06-28T23:13:22Z</time>
      </trkpt>
      <trkpt lat="45.69042" lon="4.57988">
        <ele>757</ele>
        <time>2019-06-28T23:13:32Z</time>
      </trkpt>
      <trkpt lat="45.6903" lon="4.57994">
        <ele>755</ele>
        <time>2019-06-28T23:13:35Z</time>
      </trkpt>
      <trkpt lat="45.69006" lon="4.57998">
        <ele>751</ele>
        <time>2019-06-28T23:13:40Z</time>
      </trkpt>
      <trkpt lat="45.68987" lon="4.58005">
        <ele>747</ele>
        <time>2019-06-28T23:13:45Z</time>
      </trkpt>
      <trkpt lat="45.68963" lon="4.58049">
        <ele>741</ele>
        <time>2019-06-28T23:13:54Z</time>
      </trkpt>
      <trkpt lat="45.68944" lon="4.58101">
        <ele>736</ele>
        <time>2019-06-28T23:14:03Z</time>
      </trkpt>
      <trkpt lat="45.68922" lon="4.58122">
        <ele>731</ele>
        <time>2019-06-28T23:14:10Z</time>
      </trkpt>
      <trkpt lat="45.68905" lon="4.58115">
        <ele>728</ele>
        <time>2019-06-28T23:14:14Z</time>
      </trkpt>
      <trkpt lat="45.68891" lon="4.58085">
        <ele>726</ele>
        <time>2019-06-28T23:14:20Z</time>
      </trkpt>
      <trkpt lat="45.6888" lon="4.58016">
        <ele>726</ele>
        <time>2019-06-28T23:14:31Z</time>
      </trkpt>
      <trkpt lat="45.68862" lon="4.57926">
        <ele>724</ele>
        <time>2019-06-28T23:14:46Z</time>
      </trkpt>
      <trkpt lat="45.68836" lon="4.57904">
        <ele>723</ele>
        <time>2019-06-28T23:14:53Z</time>
      </trkpt>
      <trkpt lat="45.68819" lon="4.5793">
        <ele>724</ele>
        <time>2019-06-28T23:14:59Z</time>
      </trkpt>
      <trkpt lat="45.688" lon="4.57978">
        <ele>725</ele>
        <time>2019-06-28T23:15:08Z</time>
      </trkpt>
      <trkpt lat="45.68788" lon="4.5799">
        <ele>727</ele>
        <time>2019-06-28T23:15:12Z</time>
      </trkpt>
      <trkpt lat="45.68771" lon="4.57999">
        <ele>729</ele>
        <time>2019-06-28T23:15:16Z</time>
      </trkpt>
      <trkpt lat="45.6876" lon="4.58048">
        <ele>726</ele>
        <time>2019-06-28T23:15:24Z</time>
      </trkpt>
      <trkpt lat="45.68738" lon="4.58087">
        <ele>726</ele>
        <time>2019-06-28T23:15:33Z</time>
      </trkpt>
      <trkpt lat="45.68746" lon="4.58139">
        <ele>725</ele>
        <time>2019-06-28T23:15:41Z</time>
      </trkpt>
      <trkpt lat="45.6874" lon="4.58179">
        <ele>728</ele>
        <time>2019-06-28T23:15:48Z</time>
      </trkpt>
      <trkpt lat="45.68722" lon="4.58234">
        <ele>734</ele>
        <time>2019-06-28T23:15:58Z</time>
      </trkpt>
      <trkpt lat="45.68659" lon="4.5835">
        <ele>737</ele>
        <time>2019-06-28T23:16:22Z</time>
      </trkpt>
      <trkpt lat="45.68659" lon="4.58321">
        <ele>742</ele>
        <time>2019-06-28T23:16:26Z</time>
      </trkpt>
      <trkpt lat="45.68686" lon="4.58211">
        <ele>743</ele>
        <time>2019-06-28T23:16:46Z</time>
      </trkpt>
      <trkpt lat="45.68678" lon="4.58153">
        <ele>744</ele>
        <time>2019-06-28T23:16:55Z</time>
      </trkpt>
      <trkpt lat="45.68675" lon="4.58143">
        <ele>745</ele>
        <time>2019-06-28T23:16:57Z</time>
      </trkpt>
      <trkpt lat="45.68667" lon="4.58142">
        <ele>747</ele>
        <time>2019-06-28T23:16:59Z</time>
      </trkpt>
      <trkpt lat="45.6866" lon="4.58148">
        <ele>748</ele>
        <time>2019-06-28T23:17:01Z</time>
      </trkpt>
      <trkpt lat="45.68648" lon="4.58168">
        <ele>751</ele>
        <time>2019-06-28T23:17:05Z</time>
      </trkpt>
      <trkpt lat="45.6863" lon="4.58184">
        <ele>754</ele>
        <time>2019-06-28T23:17:10Z</time>
      </trkpt>
      <trkpt lat="45.68613" lon="4.58186">
        <ele>757</ele>
        <time>2019-06-28T23:17:14Z</time>
      </trkpt>
      <trkpt lat="45.68551" lon="4.58212">
        <ele>766</ele>
        <time>2019-06-28T23:17:29Z</time>
      </trkpt>
      <trkpt lat="45.68544" lon="4.58212">
        <ele>766</ele>
        <time>2019-06-28T23:17:31Z</time>
      </trkpt>
      <trkpt lat="45.68536" lon="4.58205">
        <ele>767</ele>
        <time>2019-06-28T23:17:33Z</time>
      </trkpt>
      <trkpt lat="45.68515" lon="4.5816">
        <ele>770</ele>
        <time>2019-06-28T23:17:42Z</time>
      </trkpt>
      <trkpt lat="45.68488" lon="4.5824">
        <ele>770</ele>
        <time>2019-06-28T23:17:56Z</time>
      </trkpt>
      <trkpt lat="45.68448" lon="4.58285">
        <ele>764</ele>
        <time>2019-06-28T23:18:08Z</time>
      </trkpt>
      <trkpt lat="45.68425" lon="4.58301">
        <ele>761</ele>
        <time>2019-06-28T23:18:14Z</time>
      </trkpt>
      <trkpt lat="45.684" lon="4.5831">
        <ele>758</ele>
        <time>2019-06-28T23:18:20Z</time>
      </trkpt>
      <trkpt lat="45.68387" lon="4.58328">
        <ele>755</ele>
        <time>2019-06-28T23:18:24Z</time>
      </trkpt>
      <trkpt lat="45.68352" lon="4.58363">
        <ele>754</ele>
        <time>2019-06-28T23:18:34Z</time>
      </trkpt>
      <trkpt lat="45.68231" lon="4.5833">
        <ele>735</ele>
        <time>2019-06-28T23:19:03Z</time>
      </trkpt>
      <trkpt lat="45.68212" lon="4.58282">
        <ele>736</ele>
        <time>2019-06-28T23:19:12Z</time>
      </trkpt>
      <trkpt lat="45.68106" lon="4.58111">
        <ele>738</ele>
        <time>2019-06-28T23:19:49Z</time>
      </trkpt>
      <trkpt lat="45.68029" lon="4.58035">
        <ele>738</ele>
        <time>2019-06-28T23:20:11Z</time>
      </trkpt>
      <trkpt lat="45.68015" lon="4.58027">
        <ele>737</ele>
        <time>2019-06-28T23:20:15Z</time>
      </trkpt>
      <trkpt lat="45.68009" lon="4.58012">
        <ele>740</ele>
        <time>2019-06-28T23:20:17Z</time>
      </trkpt>
      <trkpt lat="45.67989" lon="4.58005">
        <ele>740</ele>
        <time>2019-06-28T23:20:22Z</time>
      </trkpt>
      <trkpt lat="45.67966" lon="4.57988">
        <ele>744</ele>
        <time>2019-06-28T23:20:28Z</time>
      </trkpt>
      <trkpt lat="45.6792" lon="4.57977">
        <ele>746</ele>
        <time>2019-06-28T23:20:39Z</time>
      </trkpt>
      <trkpt lat="45.67878" lon="4.57986">
        <ele>744</ele>
        <time>2019-06-28T23:20:49Z</time>
      </trkpt>
      <trkpt lat="45.67825" lon="4.57983">
        <ele>746</ele>
        <time>2019-06-28T23:21:02Z</time>
      </trkpt>
      <trkpt lat="45.67789" lon="4.57988">
        <ele>744</ele>
        <time>2019-06-28T23:21:10Z</time>
      </trkpt>
      <trkpt lat="45.67759" lon="4.57976">
        <ele>749</ele>
        <time>2019-06-28T23:21:17Z</time>
      </trkpt>
      <trkpt lat="45.67688" lon="4.57929">
        <ele>759</ele>
        <time>2019-06-28T23:21:36Z</time>
      </trkpt>
      <trkpt lat="45.67667" lon="4.57899">
        <ele>764</ele>
        <time>2019-06-28T23:21:42Z</time>
      </trkpt>
      <trkpt lat="45.67644" lon="4.57875">
        <ele>766</ele>
        <time>2019-06-28T23:21:49Z</time>
      </trkpt>
      <trkpt lat="45.67632" lon="4.57852">
        <ele>769</ele>
        <time>2019-06-28T23:21:54Z</time>
      </trkpt>
      <trkpt lat="45.67625" lon="4.57825">
        <ele>772</ele>
        <time>2019-06-28T23:21:58Z</time>
      </trkpt>
      <trkpt lat="45.67611" lon="4.57742">
        <ele>773</ele>
        <time>2019-06-28T23:22:12Z</time>
      </trkpt>
      <trkpt lat="45.67593" lon="4.57673">
        <ele>770</ele>
        <time>2019-06-28T23:22:24Z</time>
      </trkpt>
      <trkpt lat="45.67586" lon="4.57649">
        <ele>767</ele>
        <time>2019-06-28T23:22:29Z</time>
      </trkpt>
      <trkpt lat="45.67563" lon="4.57591">
        <ele>761</ele>
        <time>2019-06-28T23:22:40Z</time>
      </trkpt>
      <trkpt lat="45.67549" lon="4.57566">
        <ele>759</ele>
        <time>2019-06-28T23:22:45Z</time>
      </trkpt>
      <trkpt lat="45.67531" lon="4.5754">
        <ele>758</ele>
        <time>2019-06-28T23:22:51Z</time>
      </trkpt>
      <trkpt lat="45.67485" lon="4.575">
        <ele>753</ele>
        <time>2019-06-28T23:23:03Z</time>
      </trkpt>
      <trkpt lat="45.67352" lon="4.57353">
        <ele>711</ele>
        <time>2019-06-28T23:23:43Z</time>
      </trkpt>
      <trkpt lat="45.6732" lon="4.57325">
        <ele>704</ele>
        <time>2019-06-28T23:23:51Z</time>
      </trkpt>
      <trkpt lat="45.67302" lon="4.57303">
        <ele>701</ele>
        <time>2019-06-28T23:23:57Z</time>
      </trkpt>
      <trkpt lat="45.67265" lon="4.57272">
        <ele>694</ele>
        <time>2019-06-28T23:24:07Z</time>
      </trkpt>
      <trkpt lat="45.67205" lon="4.57235">
        <ele>685</ele>
        <time>2019-06-28T23:24:22Z</time>
      </trkpt>
      <trkpt lat="45.67194" lon="4.57217">
        <ele>684</ele>
        <time>2019-06-28T23:24:26Z</time>
      </trkpt>
      <trkpt lat="45.6718" lon="4.57211">
        <ele>684</ele>
        <time>2019-06-28T23:24:29Z</time>
      </trkpt>
      <trkpt lat="45.67167" lon="4.57219">
        <ele>682</ele>
        <time>2019-06-28T23:24:33Z</time>
      </trkpt>
      <trkpt lat="45.67149" lon="4.57235">
        <ele>682</ele>
        <time>2019-06-28T23:24:38Z</time>
      </trkpt>
      <trkpt lat="45.67134" lon="4.5724">
        <ele>683</ele>
        <time>2019-06-28T23:24:41Z</time>
      </trkpt>
      <trkpt lat="45.67077" lon="4.57246">
        <ele>688</ele>
        <time>2019-06-28T23:24:55Z</time>
      </trkpt>
      <trkpt lat="45.66997" lon="4.5727">
        <ele>701</ele>
        <time>2019-06-28T23:25:14Z</time>
      </trkpt>
      <trkpt lat="45.66974" lon="4.57248">
        <ele>709</ele>
        <time>2019-06-28T23:25:20Z</time>
      </trkpt>
      <trkpt lat="45.66969" lon="4.5724">
        <ele>711</ele>
        <time>2019-06-28T23:25:22Z</time>
      </trkpt>
      <trkpt lat="45.66977" lon="4.57175">
        <ele>711</ele>
        <time>2019-06-28T23:25:33Z</time>
      </trkpt>
      <trkpt lat="45.66973" lon="4.57166">
        <ele>712</ele>
        <time>2019-06-28T23:25:34Z</time>
      </trkpt>
      <trkpt lat="45.66967" lon="4.57163">
        <ele>714</ele>
        <time>2019-06-28T23:25:36Z</time>
      </trkpt>
      <trkpt lat="45.66955" lon="4.57166">
        <ele>717</ele>
        <time>2019-06-28T23:25:39Z</time>
      </trkpt>
      <trkpt lat="45.66942" lon="4.5718">
        <ele>720</ele>
        <time>2019-06-28T23:25:43Z</time>
      </trkpt>
      <trkpt lat="45.66917" lon="4.57244">
        <ele>724</ele>
        <time>2019-06-28T23:25:55Z</time>
      </trkpt>
      <trkpt lat="45.66915" lon="4.57243">
        <ele>724</ele>
        <time>2019-06-28T23:25:55Z</time>
      </trkpt>
      <trkpt lat="45.66919" lon="4.57206">
        <ele>725</ele>
        <time>2019-06-28T23:26:01Z</time>
      </trkpt>
      <trkpt lat="45.66916" lon="4.57195">
        <ele>726</ele>
        <time>2019-06-28T23:26:03Z</time>
      </trkpt>
      <trkpt lat="45.66893" lon="4.57146">
        <ele>731</ele>
        <time>2019-06-28T23:26:13Z</time>
      </trkpt>
      <trkpt lat="45.66883" lon="4.5714">
        <ele>733</ele>
        <time>2019-06-28T23:26:15Z</time>
      </trkpt>
      <trkpt lat="45.66871" lon="4.57144">
        <ele>735</ele>
        <time>2019-06-28T23:26:18Z</time>
      </trkpt>
      <trkpt lat="45.66858" lon="4.57152">
        <ele>737</ele>
        <time>2019-06-28T23:26:21Z</time>
      </trkpt>
      <trkpt lat="45.66855" lon="4.57157">
        <ele>737</ele>
        <time>2019-06-28T23:26:23Z</time>
      </trkpt>
      <trkpt lat="45.66862" lon="4.57182">
        <ele>734</ele>
        <time>2019-06-28T23:26:27Z</time>
      </trkpt>
      <trkpt lat="45.66869" lon="4.57194">
        <ele>733</ele>
        <time>2019-06-28T23:26:29Z</time>
      </trkpt>
      <trkpt lat="45.66879" lon="4.57202">
        <ele>731</ele>
        <time>2019-06-28T23:26:32Z</time>
      </trkpt>
      <trkpt lat="45.66881" lon="4.57211">
        <ele>730</ele>
        <time>2019-06-28T23:26:34Z</time>
      </trkpt>
      <trkpt lat="45.66878" lon="4.57226">
        <ele>730</ele>
        <time>2019-06-28T23:26:36Z</time>
      </trkpt>
      <trkpt lat="45.66856" lon="4.57248">
        <ele>731</ele>
        <time>2019-06-28T23:26:42Z</time>
      </trkpt>
      <trkpt lat="45.66826" lon="4.57294">
        <ele>724</ele>
        <time>2019-06-28T23:26:53Z</time>
      </trkpt>
      <trkpt lat="45.66804" lon="4.57293">
        <ele>724</ele>
        <time>2019-06-28T23:26:58Z</time>
      </trkpt>
      <trkpt lat="45.66797" lon="4.57295">
        <ele>723</ele>
        <time>2019-06-28T23:27:00Z</time>
      </trkpt>
      <trkpt lat="45.66775" lon="4.57311">
        <ele>718</ele>
        <time>2019-06-28T23:27:05Z</time>
      </trkpt>
      <trkpt lat="45.66767" lon="4.57313">
        <ele>718</ele>
        <time>2019-06-28T23:27:07Z</time>
      </trkpt>
      <trkpt lat="45.66722" lon="4.57306">
        <ele>718</ele>
        <time>2019-06-28T23:27:18Z</time>
      </trkpt>
      <trkpt lat="45.66636" lon="4.57298">
        <ele>719</ele>
        <time>2019-06-28T23:27:38Z</time>
      </trkpt>
      <trkpt lat="45.6662" lon="4.573">
        <ele>719</ele>
        <time>2019-06-28T23:27:42Z</time>
      </trkpt>
      <trkpt lat="45.66612" lon="4.57304">
        <ele>718</ele>
        <time>2019-06-28T23:27:44Z</time>
      </trkpt>
      <trkpt lat="45.66605" lon="4.57311">
        <ele>717</ele>
        <time>2019-06-28T23:27:46Z</time>
      </trkpt>
      <trkpt lat="45.66606" lon="4.57314">
        <ele>716</ele>
        <time>2019-06-28T23:27:46Z</time>
      </trkpt>
      <trkpt lat="45.66612" lon="4.5731">
        <ele>717</ele>
        <time>2019-06-28T23:27:48Z</time>
      </trkpt>
      <trkpt lat="45.66622" lon="4.57309">
        <ele>717</ele>
        <time>2019-06-28T23:27:50Z</time>
      </trkpt>
      <trkpt lat="45.6663" lon="4.57312">
        <ele>716</ele>
        <time>2019-06-28T23:27:52Z</time>
      </trkpt>
      <trkpt lat="45.66666" lon="4.57337">
        <ele>709</ele>
        <time>2019-06-28T23:28:01Z</time>
      </trkpt>
      <trkpt lat="45.66682" lon="4.57343">
        <ele>707</ele>
        <time>2019-06-28T23:28:05Z</time>
      </trkpt>
      <trkpt lat="45.66698" lon="4.57345">
        <ele>707</ele>
        <time>2019-06-28T23:28:09Z</time>
      </trkpt>
      <trkpt lat="45.6676" lon="4.57371">
        <ele>703</ele>
        <time>2019-06-28T23:28:24Z</time>
      </trkpt>
      <trkpt lat="45.6678" lon="4.57384">
        <ele>701</ele>
        <time>2019-06-28T23:28:29Z</time>
      </trkpt>
      <trkpt lat="45.66793" lon="4.574">
        <ele>698</ele>
        <time>2019-06-28T23:28:33Z</time>
      </trkpt>
      <trkpt lat="45.66804" lon="4.57401">
        <ele>699</ele>
        <time>2019-06-28T23:28:36Z</time>
      </trkpt>
      <trkpt lat="45.66842" lon="4.57391">
        <ele>703</ele>
        <time>2019-06-28T23:28:45Z</time>
      </trkpt>
      <trkpt lat="45.66846" lon="4.57403">
        <ele>700</ele>
        <time>2019-06-28T23:28:47Z</time>
      </trkpt>
      <trkpt lat="45.66856" lon="4.57412">
        <ele>698</ele>
        <time>2019-06-28T23:28:50Z</time>
      </trkpt>
      <trkpt lat="45.66879" lon="4.57416">
        <ele>697</ele>
        <time>2019-06-28T23:28:55Z</time>
      </trkpt>
      <trkpt lat="45.66887" lon="4.57429">
        <ele>693</ele>
        <time>2019-06-28T23:28:58Z</time>
      </trkpt>
      <trkpt lat="45.66864" lon="4.5745">
        <ele>686</ele>
        <time>2019-06-28T23:29:04Z</time>
      </trkpt>
      <trkpt lat="45.66861" lon="4.57458">
        <ele>683</ele>
        <time>2019-06-28T23:29:06Z</time>
      </trkpt>
      <trkpt lat="45.66865" lon="4.57466">
        <ele>681</ele>
        <time>2019-06-28T23:29:07Z</time>
      </trkpt>
      <trkpt lat="45.66849" lon="4.57467">
        <ele>680</ele>
        <time>2019-06-28T23:29:11Z</time>
      </trkpt>
      <trkpt lat="45.66834" lon="4.57471">
        <ele>678</ele>
        <time>2019-06-28T23:29:15Z</time>
      </trkpt>
      <trkpt lat="45.66828" lon="4.57482">
        <ele>674</ele>
        <time>2019-06-28T23:29:17Z</time>
      </trkpt>
      <trkpt lat="45.66781" lon="4.57543">
        <ele>654</ele>
        <time>2019-06-28T23:29:32Z</time>
      </trkpt>
      <trkpt lat="45.66763" lon="4.57558">
        <ele>650</ele>
        <time>2019-06-28T23:29:37Z</time>
      </trkpt>
      <trkpt lat="45.66699" lon="4.57581">
        <ele>647</ele>
        <time>2019-06-28T23:29:52Z</time>
      </trkpt>
      <trkpt lat="45.66685" lon="4.57592">
        <ele>646</ele>
        <time>2019-06-28T23:29:56Z</time>
      </trkpt>
      <trkpt lat="45.66671" lon="4.57654">
        <ele>637</ele>
        <time>2019-06-28T23:30:06Z</time>
      </trkpt>
      <trkpt lat="45.6666" lon="4.5769">
        <ele>633</ele>
        <time>2019-06-28T23:30:13Z</time>
      </trkpt>
      <trkpt lat="45.6665" lon="4.57712">
        <ele>633</ele>
        <time>2019-06-28T23:30:17Z</time>
      </trkpt>
      <trkpt lat="45.6663" lon="4.5774">
        <ele>635</ele>
        <time>2019-06-28T23:30:24Z</time>
      </trkpt>
      <trkpt lat="45.66625" lon="4.57751">
        <ele>635</ele>
        <time>2019-06-28T23:30:26Z</time>
      </trkpt>
      <trkpt lat="45.66614" lon="4.57846">
        <ele>635</ele>
        <time>2019-06-28T23:30:42Z</time>
      </trkpt>
      <trkpt lat="45.66615" lon="4.57866">
        <ele>634</ele>
        <time>2019-06-28T23:30:45Z</time>
      </trkpt>
      <trkpt lat="45.66616" lon="4.57874">
        <ele>633</ele>
        <time>2019-06-28T23:30:46Z</time>
      </trkpt>
      <trkpt lat="45.66639" lon="4.57893">
        <ele>628</ele>
        <time>2019-06-28T23:30:52Z</time>
      </trkpt>
      <trkpt lat="45.66637" lon="4.5791">
        <ele>628</ele>
        <time>2019-06-28T23:30:55Z</time>
      </trkpt>
      <trkpt lat="45.66631" lon="4.57923">
        <ele>627</ele>
        <time>2019-06-28T23:30:58Z</time>
      </trkpt>
      <trkpt lat="45.66612" lon="4.57946">
        <ele>627</ele>
        <time>2019-06-28T23:31:03Z</time>
      </trkpt>
      <trkpt lat="45.66593" lon="4.57961">
        <ele>627</ele>
        <time>2019-06-28T23:31:09Z</time>
      </trkpt>
      <trkpt lat="45.66584" lon="4.57972">
        <ele>626</ele>
        <time>2019-06-28T23:31:11Z</time>
      </trkpt>
      <trkpt lat="45.66578" lon="4.57984">
        <ele>625</ele>
        <time>2019-06-28T23:31:14Z</time>
      </trkpt>
      <trkpt lat="45.66534" lon="4.58112">
        <ele>610</ele>
        <time>2019-06-28T23:31:37Z</time>
      </trkpt>
      <trkpt lat="45.66535" lon="4.58126">
        <ele>607</ele>
        <time>2019-06-28T23:31:39Z</time>
      </trkpt>
      <trkpt lat="45.66547" lon="4.58129">
        <ele>604</ele>
        <time>2019-06-28T23:31:42Z</time>
      </trkpt>
      <trkpt lat="45.66556" lon="4.58143">
        <ele>600</ele>
        <time>2019-06-28T23:31:45Z</time>
      </trkpt>
      <trkpt lat="45.66558" lon="4.58183">
        <ele>593</ele>
        <time>2019-06-28T23:31:52Z</time>
      </trkpt>
      <trkpt lat="45.66555" lon="4.58199">
        <ele>591</ele>
        <time>2019-06-28T23:31:55Z</time>
      </trkpt>
      <trkpt lat="45.66548" lon="4.58207">
        <ele>590</ele>
        <time>2019-06-28T23:31:57Z</time>
      </trkpt>
      <trkpt lat="45.66541" lon="4.5821">
        <ele>590</ele>
        <time>2019-06-28T23:31:58Z</time>
      </trkpt>
      <trkpt lat="45.66536" lon="4.5821">
        <ele>591</ele>
        <time>2019-06-28T23:31:59Z</time>
      </trkpt>
      <trkpt lat="45.66511" lon="4.58194">
        <ele>598</ele>
        <time>2019-06-28T23:32:06Z</time>
      </trkpt>
      <trkpt lat="45.66496" lon="4.582">
        <ele>599</ele>
        <time>2019-06-28T23:32:10Z</time>
      </trkpt>
      <trkpt lat="45.66454" lon="4.58262">
        <ele>592</ele>
        <time>2019-06-28T23:32:24Z</time>
      </trkpt>
      <trkpt lat="45.66437" lon="4.58275">
        <ele>592</ele>
        <time>2019-06-28T23:32:28Z</time>
      </trkpt>
      <trkpt lat="45.66424" lon="4.58281">
        <ele>593</ele>
        <time>2019-06-28T23:32:31Z</time>
      </trkpt>
      <trkpt lat="45.66417" lon="4.58292">
        <ele>591</ele>
        <time>2019-06-28T23:32:34Z</time>
      </trkpt>
      <trkpt lat="45.66379" lon="4.58497">
        <ele>555</ele>
        <time>2019-06-28T23:33:08Z</time>
      </trkpt>
      <trkpt lat="45.66369" lon="4.58584">
        <ele>546</ele>
        <time>2019-06-28T23:33:23Z</time>
      </trkpt>
      <trkpt lat="45.66356" lon="4.58669">
        <ele>534</ele>
        <time>2019-06-28T23:33:37Z</time>
      </trkpt>
      <trkpt lat="45.6636" lon="4.58743">
        <ele>519</ele>
        <time>2019-06-28T23:33:49Z</time>
      </trkpt>
      <trkpt lat="45.6634" lon="4.58744">
        <ele>518</ele>
        <time>2019-06-28T23:33:54Z</time>
      </trkpt>
      <trkpt lat="45.66325" lon="4.58738">
        <ele>521</ele>
        <time>2019-06-28T23:33:57Z</time>
      </trkpt>
      <trkpt lat="45.66303" lon="4.58696">
        <ele>531</ele>
        <time>2019-06-28T23:34:06Z</time>
      </trkpt>
      <trkpt lat="45.66261" lon="4.58647">
        <ele>539</ele>
        <time>2019-06-28T23:34:19Z</time>
      </trkpt>
      <trkpt lat="45.66242" lon="4.58631">
        <ele>542</ele>
        <time>2019-06-28T23:34:24Z</time>
      </trkpt>
      <trkpt lat="45.66222" lon="4.58605">
        <ele>546</ele>
        <time>2019-06-28T23:34:30Z</time>
      </trkpt>
      <trkpt lat="45.66161" lon="4.58604">
        <ele>542</ele>
        <time>2019-06-28T23:34:44Z</time>
      </trkpt>
      <trkpt lat="45.66125" lon="4.58568">
        <ele>550</ele>
        <time>2019-06-28T23:34:55Z</time>
      </trkpt>
      <trkpt lat="45.66109" lon="4.58623">
        <ele>548</ele>
        <time>2019-06-28T23:35:04Z</time>
      </trkpt>
      <trkpt lat="45.66111" lon="4.58641">
        <ele>546</ele>
        <time>2019-06-28T23:35:07Z</time>
      </trkpt>
      <trkpt lat="45.661" lon="4.58665">
        <ele>546</ele>
        <time>2019-06-28T23:35:12Z</time>
      </trkpt>
      <trkpt lat="45.66059" lon="4.58712">
        <ele>554</ele>
        <time>2019-06-28T23:35:24Z</time>
      </trkpt>
      <trkpt lat="45.66121" lon="4.58733">
        <ele>549</ele>
        <time>2019-06-28T23:35:39Z</time>
      </trkpt>
      <trkpt lat="45.66179" lon="4.58822">
        <ele>560</ele>
        <time>2019-06-28T23:35:59Z</time>
      </trkpt>
      <trkpt lat="45.66144" lon="4.58827">
        <ele>564</ele>
        <time>2019-06-28T23:36:07Z</time>
      </trkpt>
      <trkpt lat="45.66112" lon="4.58847">
        <ele>568</ele>
        <time>2019-06-28T23:36:15Z</time>
      </trkpt>
      <trkpt lat="45.66086" lon="4.58872">
        <ele>573</ele>
        <time>2019-06-28T23:36:23Z</time>
      </trkpt>
      <trkpt lat="45.66079" lon="4.58894">
        <ele>576</ele>
        <time>2019-06-28T23:36:27Z</time>
      </trkpt>
      <trkpt lat="45.66107" lon="4.58922">
        <ele>578</ele>
        <time>2019-06-28T23:36:35Z</time>
      </trkpt>
      <trkpt lat="45.66106" lon="4.58948">
        <ele>580</ele>
        <time>2019-06-28T23:36:39Z</time>
      </trkpt>
      <trkpt lat="45.6609" lon="4.59">
        <ele>588</ele>
        <time>2019-06-28T23:36:48Z</time>
      </trkpt>
      <trkpt lat="45.66049" lon="4.59058">
        <ele>590</ele>
        <time>2019-06-28T23:37:02Z</time>
      </trkpt>
      <trkpt lat="45.66016" lon="4.59119">
        <ele>598</ele>
        <time>2019-06-28T23:37:14Z</time>
      </trkpt>
      <trkpt lat="45.65987" lon="4.59188">
        <ele>609</ele>
        <time>2019-06-28T23:37:27Z</time>
      </trkpt>
      <trkpt lat="45.65961" lon="4.592">
        <ele>610</ele>
        <time>2019-06-28T23:37:34Z</time>
      </trkpt>
      <trkpt lat="45.65901" lon="4.59235">
        <ele>610</ele>
        <time>2019-06-28T23:37:49Z</time>
      </trkpt>
      <trkpt lat="45.65852" lon="4.59257">
        <ele>607</ele>
        <time>2019-06-28T23:38:01Z</time>
      </trkpt>
      <trkpt lat="45.65791" lon="4.59295">
        <ele>611</ele>
        <time>2019-06-28T23:38:16Z</time>
      </trkpt>
      <trkpt lat="45.65749" lon="4.59301">
        <ele>611</ele>
        <time>2019-06-28T23:38:26Z</time>
      </trkpt>
      <trkpt lat="45.65719" lon="4.59273">
        <ele>613</ele>
        <time>2019-06-28T23:38:35Z</time>
      </trkpt>
      <trkpt lat="45.65676" lon="4.592">
        <ele>617</ele>
        <time>2019-06-28T23:38:50Z</time>
      </trkpt>
      <trkpt lat="45.65656" lon="4.5918">
        <ele>621</ele>
        <time>2019-06-28T23:38:56Z</time>
      </trkpt>
      <trkpt lat="45.65635" lon="4.59143">
        <ele>627</ele>
        <time>2019-06-28T23:39:04Z</time>
      </trkpt>
      <trkpt lat="45.65648" lon="4.59078">
        <ele>626</ele>
        <time>2019-06-28T23:39:15Z</time>
      </trkpt>
      <trkpt lat="45.65609" lon="4.59131">
        <ele>635</ele>
        <time>2019-06-28T23:39:27Z</time>
      </trkpt>
      <trkpt lat="45.65624" lon="4.59185">
        <ele>631</ele>
        <time>2019-06-28T23:39:37Z</time>
      </trkpt>
      <trkpt lat="45.65623" lon="4.59259">
        <ele>635</ele>
        <time>2019-06-28T23:39:49Z</time>
      </trkpt>
      <trkpt lat="45.65632" lon="4.59342">
        <ele>639</ele>
        <time>2019-06-28T23:40:02Z</time>
      </trkpt>
      <trkpt lat="45.65641" lon="4.59397">
        <ele>643</ele>
        <time>2019-06-28T23:40:12Z</time>
      </trkpt>
      <trkpt lat="45.65685" lon="4.59466">
        <ele>645</ele>
        <time>2019-06-28T23:40:27Z</time>
      </trkpt>
      <trkpt lat="45.65716" lon="4.5952">
        <ele>651</ele>
        <time>2019-06-28T23:40:38Z</time>
      </trkpt>
      <trkpt lat="45.65723" lon="4.59545">
        <ele>654</ele>
        <time>2019-06-28T23:40:43Z</time>
      </trkpt>
      <trkpt lat="45.65713" lon="4.59586">
        <ele>659</ele>
        <time>2019-06-28T23:40:50Z</time>
      </trkpt>
      <trkpt lat="45.657" lon="4.59616">
        <ele>661</ele>
        <time>2019-06-28T23:40:56Z</time>
      </trkpt>
      <trkpt lat="45.65699" lon="4.59628">
        <ele>661</ele>
        <time>2019-06-28T23:40:58Z</time>
      </trkpt>
      <trkpt lat="45.65681" lon="4.59619">
        <ele>661</ele>
        <time>2019-06-28T23:41:02Z</time>
      </trkpt>
      <trkpt lat="45.65673" lon="4.59618">
        <ele>661</ele>
        <time>2019-06-28T23:41:04Z</time>
      </trkpt>
      <trkpt lat="45.65642" lon="4.59636">
        <ele>666</ele>
        <time>2019-06-28T23:41:12Z</time>
      </trkpt>
      <trkpt lat="45.65616" lon="4.59645">
        <ele>671</ele>
        <time>2019-06-28T23:41:18Z</time>
      </trkpt>
      <trkpt lat="45.65587" lon="4.59596">
        <ele>676</ele>
        <time>2019-06-28T23:41:28Z</time>
      </trkpt>
      <trkpt lat="45.65565" lon="4.59581">
        <ele>681</ele>
        <time>2019-06-28T23:41:34Z</time>
      </trkpt>
      <trkpt lat="45.65543" lon="4.59571">
        <ele>685</ele>
        <time>2019-06-28T23:41:39Z</time>
      </trkpt>
      <trkpt lat="45.65522" lon="4.59551">
        <ele>689</ele>
        <time>2019-06-28T23:41:45Z</time>
      </trkpt>
      <trkpt lat="45.65492" lon="4.59517">
        <ele>697</ele>
        <time>2019-06-28T23:41:54Z</time>
      </trkpt>
      <trkpt lat="45.65478" lon="4.59475">
        <ele>700</ele>
        <time>2019-06-28T23:42:02Z</time>
      </trkpt>
      <trkpt lat="45.654" lon="4.59333">
        <ele>708</ele>
        <time>2019-06-28T23:42:31Z</time>
      </trkpt>
      <trkpt lat="45.65326" lon="4.59265">
        <ele>715</ele>
        <time>2019-06-28T23:42:52Z</time>
      </trkpt>
      <trkpt lat="45.65281" lon="4.59255">
        <ele>718</ele>
        <time>2019-06-28T23:43:03Z</time>
      </trkpt>
      <trkpt lat="45.65209" lon="4.5926">
        <ele>723</ele>
        <time>2019-06-28T23:43:19Z</time>
      </trkpt>
      <trkpt lat="45.65196" lon="4.59219">
        <ele>728</ele>
        <time>2019-06-28T23:43:27Z</time>
      </trkpt>
      <trkpt lat="45.65109" lon="4.59227">
        <ele>732</ele>
        <time>2019-06-28T23:43:47Z</time>
      </trkpt>
      <trkpt lat="45.65072" lon="4.59252">
        <ele>728</ele>
        <time>2019-06-28T23:43:57Z</time>
      </trkpt>
      <trkpt lat="45.65036" lon="4.59252">
        <ele>725</ele>
        <time>2019-06-28T23:44:05Z</time>
      </trkpt>
      <trkpt lat="45.64996" lon="4.59215">
        <ele>726</ele>
        <time>2019-06-28T23:44:16Z</time>
      </trkpt>
      <trkpt lat="45.64936" lon="4.59118">
        <ele>735</ele>
        <time>2019-06-28T23:44:37Z</time>
      </trkpt>
      <trkpt lat="45.64911" lon="4.59115">
        <ele>735</ele>
        <time>2019-06-28T23:44:43Z</time>
      </trkpt>
      <trkpt lat="45.64882" lon="4.59139">
        <ele>734</ele>
        <time>2019-06-28T23:44:51Z</time>
      </trkpt>
      <trkpt lat="45.6481" lon="4.59164">
        <ele>742</ele>
        <time>2019-06-28T23:45:08Z</time>
      </trkpt>
      <trkpt lat="45.64796" lon="4.59185">
        <ele>743</ele>
        <time>2019-06-28T23:45:13Z</time>
      </trkpt>
      <trkpt lat="45.64775" lon="4.5925">
        <ele>740</ele>
        <time>2019-06-28T23:45:25Z</time>
      </trkpt>
      <trkpt lat="45.6476" lon="4.59262">
        <ele>744</ele>
        <time>2019-06-28T23:45:29Z</time>
      </trkpt>
      <trkpt lat="45.64706" lon="4.59218">
        <ele>759</ele>
        <time>2019-06-28T23:45:43Z</time>
      </trkpt>
      <trkpt lat="45.64653" lon="4.59137">
        <ele>777</ele>
        <time>2019-06-28T23:46:01Z</time>
      </trkpt>
      <trkpt lat="45.6463" lon="4.59182">
        <ele>776</ele>
        <time>2019-06-28T23:46:10Z</time>
      </trkpt>
      <trkpt lat="45.6463" lon="4.59237">
        <ele>772</ele>
        <time>2019-06-28T23:46:19Z</time>
      </trkpt>
      <trkpt lat="45.64621" lon="4.59303">
        <ele>772</ele>
        <time>2019-06-28T23:46:30Z</time>
      </trkpt>
      <trkpt lat="45.64591" lon="4.59346">
        <ele>778</ele>
        <time>2019-06-28T23:46:40Z</time>
      </trkpt>
      <trkpt lat="45.64549" lon="4.59367">
        <ele>786</ele>
        <time>2019-06-28T23:46:51Z</time>
      </trkpt>
      <trkpt lat="45.64515" lon="4.5937">
        <ele>793</ele>
        <time>2019-06-28T23:46:59Z</time>
      </trkpt>
      <trkpt lat="45.64476" lon="4.59401">
        <ele>799</ele>
        <time>2019-06-28T23:47:09Z</time>
      </trkpt>
      <trkpt lat="45.64418" lon="4.59465">
        <ele>812</ele>
        <time>2019-06-28T23:47:26Z</time>
      </trkpt>
      <trkpt lat="45.64387" lon="4.5954">
        <ele>820</ele>
        <time>2019-06-28T23:47:40Z</time>
      </trkpt>
      <trkpt lat="45.64352" lon="4.59681">
        <ele>829</ele>
        <time>2019-06-28T23:48:05Z</time>
      </trkpt>
      <trkpt lat="45.64321" lon="4.59692">
        <ele>836</ele>
        <time>2019-06-28T23:48:12Z</time>
      </trkpt>
      <trkpt lat="45.64292" lon="4.59717">
        <ele>836</ele>
        <time>2019-06-28T23:48:20Z</time>
      </trkpt>
      <trkpt lat="45.64256" lon="4.59727">
        <ele>839</ele>
        <time>2019-06-28T23:48:29Z</time>
      </trkpt>
      <trkpt lat="45.64235" lon="4.59718">
        <ele>842</ele>
        <time>2019-06-28T23:48:34Z</time>
      </trkpt>
      <trkpt lat="45.6421" lon="4.59718">
        <ele>844</ele>
        <time>2019-06-28T23:48:40Z</time>
      </trkpt>
      <trkpt lat="45.64175" lon="4.59732">
        <ele>840</ele>
        <time>2019-06-28T23:48:48Z</time>
      </trkpt>
      <trkpt lat="45.64146" lon="4.59725">
        <ele>844</ele>
        <time>2019-06-28T23:48:55Z</time>
      </trkpt>
      <trkpt lat="45.64052" lon="4.59722">
        <ele>850</ele>
        <time>2019-06-28T23:49:17Z</time>
      </trkpt>
      <trkpt lat="45.63998" lon="4.5973">
        <ele>848</ele>
        <time>2019-06-28T23:49:30Z</time>
      </trkpt>
      <trkpt lat="45.6396" lon="4.59732">
        <ele>847</ele>
        <time>2019-06-28T23:49:39Z</time>
      </trkpt>
      <trkpt lat="45.63737" lon="4.59677">
        <ele>852</ele>
        <time>2019-06-28T23:50:31Z</time>
      </trkpt>
      <trkpt lat="45.63702" lon="4.59675">
        <ele>854</ele>
        <time>2019-06-28T23:50:40Z</time>
      </trkpt>
      <trkpt lat="45.63652" lon="4.59684">
        <ele>856</ele>
        <time>2019-06-28T23:50:51Z</time>
      </trkpt>
      <trkpt lat="45.63612" lon="4.597">
        <ele>858</ele>
        <time>2019-06-28T23:51:01Z</time>
      </trkpt>
      <trkpt lat="45.63603" lon="4.597">
        <ele>859</ele>
        <time>2019-06-28T23:51:03Z</time>
      </trkpt>
      <trkpt lat="45.63618" lon="4.59803">
        <ele>853.3</ele>
      </trkpt>
      <trkpt lat="45.63635" lon="4.59891">
        <ele>851.1</ele>
      </trkpt>
      <trkpt lat="45.63673" lon="4.59946">
        <ele>844.5</ele>
      </trkpt>
      <trkpt lat="45.637" lon="4.59995">
        <ele>842.7</ele>
      </trkpt>
      <trkpt lat="45.63746" lon="4.60052">
        <ele>837.7</ele>
      </trkpt>
      <trkpt lat="45.63796" lon="4.60146">
        <ele>823.4</ele>
      </trkpt>
      <trkpt lat="45.63853" lon="4.60264">
        <ele>803.8</ele>
      </trkpt>
      <trkpt lat="45.63912" lon="4.60316">
        <ele>796.2</ele>
      </trkpt>
      <trkpt lat="45.63945" lon="4.60369">
        <ele>792</ele>
      </trkpt>
      <trkpt lat="45.63996" lon="4.60404">
        <ele>790.4</ele>
      </trkpt>
      <trkpt lat="45.64035" lon="4.60431">
        <ele>785.4</ele>
      </trkpt>
      <trkpt lat="45.64069" lon="4.60501">
        <ele>776.8</ele>
      </trkpt>
      <trkpt lat="45.6403" lon="4.60523">
        <ele>769.4</ele>
      </trkpt>
      <trkpt lat="45.63988" lon="4.6052">
        <ele>766.7</ele>
      </trkpt>
      <trkpt lat="45.63941" lon="4.60557">
        <ele>752.7</ele>
      </trkpt>
      <trkpt lat="45.6382" lon="4.60595">
        <ele>737.7</ele>
      </trkpt>
      <trkpt lat="45.63787" lon="4.60619">
        <ele>735.1</ele>
      </trkpt>
      <trkpt lat="45.63764" lon="4.60661">
        <ele>732.5</ele>
      </trkpt>
      <trkpt lat="45.63819" lon="4.61045">
        <ele>673.8</ele>
      </trkpt>
      <trkpt lat="45.63873" lon="4.61155">
        <ele>657.2</ele>
      </trkpt>
      <trkpt lat="45.63854" lon="4.61213">
        <ele>659.1</ele>
      </trkpt>
      <trkpt lat="45.63809" lon="4.61244">
        <ele>664.6</ele>
      </trkpt>
      <trkpt lat="45.63771" lon="4.61241">
        <ele>669.7</ele>
      </trkpt>
      <trkpt lat="45.63663" lon="4.61196">
        <ele>680.4</ele>
      </trkpt>
      <trkpt lat="45.63582" lon="4.61156">
        <ele>694.2</ele>
      </trkpt>
      <trkpt lat="45.63516" lon="4.61145">
        <ele>698.3</ele>
      </trkpt>
      <trkpt lat="45.63442" lon="4.61101">
        <ele>708.1</ele>
      </trkpt>
      <trkpt lat="45.63376" lon="4.61124">
        <ele>701.7</ele>
      </trkpt>
      <trkpt lat="45.6332" lon="4.61061">
        <ele>708.7</ele>
      </trkpt>
      <trkpt lat="45.63281" lon="4.61028">
        <ele>703.7</ele>
      </trkpt>
      <trkpt lat="45.63166" lon="4.60869">
        <ele>696.8</ele>
      </trkpt>
      <trkpt lat="45.63073" lon="4.60768">
        <ele>692</ele>
      </trkpt>
      <trkpt lat="45.63011" lon="4.6078">
        <ele>690.3</ele>
      </trkpt>
      <trkpt lat="45.6297" lon="4.6085">
        <ele>688.3</ele>
      </trkpt>
      <trkpt lat="45.62937" lon="4.61089">
        <ele>677.8</ele>
      </trkpt>
      <trkpt lat="45.62895" lon="4.61202">
        <ele>676.8</ele>
      </trkpt>
      <trkpt lat="45.6286" lon="4.61282">
        <ele>676.6</ele>
      </trkpt>
      <trkpt lat="45.6285" lon="4.61342">
        <ele>669.2</ele>
      </trkpt>
      <trkpt lat="45.62808" lon="4.61453">
        <ele>656.3</ele>
      </trkpt>
      <trkpt lat="45.62786" lon="4.61556">
        <ele>637.8</ele>
      </trkpt>
      <trkpt lat="45.62749" lon="4.61596">
        <ele>634.9</ele>
      </trkpt>
      <trkpt lat="45.62702" lon="4.616">
        <ele>628.9</ele>
      </trkpt>
      <trkpt lat="45.62626" lon="4.6157">
        <ele>622.8</ele>
      </trkpt>
      <trkpt lat="45.62633" lon="4.61612">
        <ele>616.7</ele>
      </trkpt>
      <trkpt lat="45.62627" lon="4.61653">
        <ele>609.1</ele>
      </trkpt>
      <trkpt lat="45.62676" lon="4.61727">
        <ele>609.7</ele>
      </trkpt>
      <trkpt lat="45.6272" lon="4.61894">
        <ele>595.7</ele>
      </trkpt>
      <trkpt lat="45.62826" lon="4.61975">
        <ele>578.6</ele>
      </trkpt>
      <trkpt lat="45.6288" lon="4.61953">
        <ele>569</ele>
      </trkpt>
      <trkpt lat="45.62935" lon="4.61851">
        <ele>566.8</ele>
      </trkpt>
      <trkpt lat="45.6299" lon="4.61706">
        <ele>567.9</ele>
      </trkpt>
      <trkpt lat="45.6302" lon="4.61659">
        <ele>569.7</ele>
      </trkpt>
      <trkpt lat="45.63074" lon="4.6167">
        <ele>565.4</ele>
      </trkpt>
      <trkpt lat="45.63123" lon="4.61723">
        <ele>567.7</ele>
      </trkpt>
      <trkpt lat="45.63156" lon="4.61781">
        <ele>566.2</ele>
      </trkpt>
      <trkpt lat="45.63156" lon="4.61817">
        <ele>562</ele>
      </trkpt>
      <trkpt lat="45.63134" lon="4.61853">
        <ele>556.7</ele>
      </trkpt>
      <trkpt lat="45.63046" lon="4.61789">
        <ele>557.7</ele>
      </trkpt>
      <trkpt lat="45.63029" lon="4.61817">
        <ele>555.1</ele>
      </trkpt>
      <trkpt lat="45.63046" lon="4.62027">
        <ele>537.5</ele>
      </trkpt>
      <trkpt lat="45.63074" lon="4.6211">
        <ele>531.1</ele>
      </trkpt>
      <trkpt lat="45.63074" lon="4.62179">
        <ele>525.9</ele>
      </trkpt>
      <trkpt lat="45.63053" lon="4.62269">
        <ele>517.7</ele>
      </trkpt>
      <trkpt lat="45.63082" lon="4.62392">
        <ele>509.4</ele>
      </trkpt>
      <trkpt lat="45.63106" lon="4.6254">
        <ele>500.5</ele>
      </trkpt>
      <trkpt lat="45.63076" lon="4.62629">
        <ele>494</ele>
      </trkpt>
      <trkpt lat="45.63081" lon="4.62725">
        <ele>489.2</ele>
      </trkpt>
      <trkpt lat="45.63094" lon="4.62752">
        <ele>489.4</ele>
      </trkpt>
      <trkpt lat="45.6309" lon="4.62812">
        <ele>483.3</ele>
      </trkpt>
      <trkpt lat="45.63088" lon="4.62905">
        <ele>476.8</ele>
      </trkpt>
      <trkpt lat="45.63108" lon="4.62973">
        <ele>479.9</ele>
      </trkpt>
      <trkpt lat="45.63098" lon="4.63026">
        <ele>478.7</ele>
      </trkpt>
      <trkpt lat="45.63059" lon="4.63201">
        <ele>482.5</ele>
      </trkpt>
      <trkpt lat="45.63123" lon="4.63315">
        <ele>485.2</ele>
      </trkpt>
      <trkpt lat="45.63154" lon="4.63514">
        <ele>472.6</ele>
      </trkpt>
      <trkpt lat="45.63195" lon="4.6372">
        <ele>462.3</ele>
      </trkpt>
      <trkpt lat="45.63164" lon="4.63749">
        <ele>458.9</ele>
      </trkpt>
      <trkpt lat="45.63148" lon="4.63783">
        <ele>454.5</ele>
      </trkpt>
      <trkpt lat="45.63082" lon="4.63856">
        <ele>444.3</ele>
      </trkpt>
      <trkpt lat="45.63093" lon="4.63933">
        <ele>440.6</ele>
      </trkpt>
      <trkpt lat="45.63076" lon="4.64008">
        <ele>437</ele>
      </trkpt>
      <trkpt lat="45.63006" lon="4.63982">
        <ele>430</ele>
      </trkpt>
      <trkpt lat="45.62962" lon="4.63993">
        <ele>428.3</ele>
      </trkpt>
      <trkpt lat="45.6293" lon="4.64035">
        <ele>428.2</ele>
      </trkpt>
      <trkpt lat="45.62887" lon="4.63966">
        <ele>432.3</ele>
      </trkpt>
      <trkpt lat="45.62851" lon="4.63938">
        <ele>437.4</ele>
      </trkpt>
      <trkpt lat="45.62761" lon="4.63858">
        <ele>455.3</ele>
      </trkpt>
      <trkpt lat="45.62663" lon="4.63746">
        <ele>478.1</ele>
      </trkpt>
      <trkpt lat="45.62665" lon="4.63703">
        <ele>482</ele>
      </trkpt>
      <trkpt lat="45.62635" lon="4.63649">
        <ele>488.2</ele>
      </trkpt>
      <trkpt lat="45.62605" lon="4.63574">
        <ele>498.1</ele>
      </trkpt>
      <trkpt lat="45.62565" lon="4.63501">
        <ele>513.1</ele>
      </trkpt>
      <trkpt lat="45.62494" lon="4.63448">
        <ele>518.8</ele>
      </trkpt>
      <trkpt lat="45.62472" lon="4.63463">
        <ele>521.3</ele>
      </trkpt>
      <trkpt lat="45.62452" lon="4.6349">
        <ele>523.2</ele>
      </trkpt>
      <trkpt lat="45.62432" lon="4.63567">
        <ele>521.6</ele>
      </trkpt>
      <trkpt lat="45.62417" lon="4.63659">
        <ele>515</ele>
      </trkpt>
      <trkpt lat="45.62364" lon="4.63719">
        <ele>513</ele>
      </trkpt>
      <trkpt lat="45.62339" lon="4.63846">
        <ele>507.1</ele>
      </trkpt>
      <trkpt lat="45.62297" lon="4.63915">
        <ele>506.7</ele>
      </trkpt>
      <trkpt lat="45.62233" lon="4.6392">
        <ele>505.6</ele>
      </trkpt>
      <trkpt lat="45.62133" lon="4.63926">
        <ele>504.1</ele>
      </trkpt>
      <trkpt lat="45.6208" lon="4.63924">
        <ele>502.9</ele>
      </trkpt>
      <trkpt lat="45.62091" lon="4.63946">
        <ele>501</ele>
      </trkpt>
      <trkpt lat="45.62087" lon="4.63967">
        <ele>498.6</ele>
      </trkpt>
      <trkpt lat="45.62044" lon="4.63963">
        <ele>495</ele>
      </trkpt>
      <trkpt lat="45.61996" lon="4.63907">
        <ele>495.4</ele>
      </trkpt>
      <trkpt lat="45.61941" lon="4.63885">
        <ele>489</ele>
      </trkpt>
      <trkpt lat="45.61845" lon="4.6393">
        <ele>475.4</ele>
      </trkpt>
      <trkpt lat="45.6176" lon="4.64036">
        <ele>461.8</ele>
      </trkpt>
      <trkpt lat="45.61782" lon="4.6421">
        <ele>452.2</ele>
      </trkpt>
      <trkpt lat="45.61791" lon="4.64344">
        <ele>442.9</ele>
      </trkpt>
      <trkpt lat="45.61823" lon="4.64537">
        <ele>429.5</ele>
      </trkpt>
      <trkpt lat="45.61868" lon="4.64515">
        <ele>429.3</ele>
      </trkpt>
      <trkpt lat="45.61909" lon="4.64578">
        <ele>425.5</ele>
      </trkpt>
      <trkpt lat="45.61942" lon="4.64692">
        <ele>422.7</ele>
      </trkpt>
      <trkpt lat="45.61944" lon="4.6481">
        <ele>419</ele>
      </trkpt>
      <trkpt lat="45.6201" lon="4.6501">
        <ele>413.1</ele>
      </trkpt>
      <trkpt lat="45.62031" lon="4.65223">
        <ele>407.2</ele>
      </trkpt>
      <trkpt lat="45.62003" lon="4.65325">
        <ele>405</ele>
      </trkpt>
      <trkpt lat="45.61975" lon="4.65426">
        <ele>406.5</ele>
      </trkpt>
      <trkpt lat="45.61914" lon="4.65622">
        <ele>411.3</ele>
      </trkpt>
      <trkpt lat="45.61892" lon="4.65761">
        <ele>405.6</ele>
      </trkpt>
      <trkpt lat="45.61855" lon="4.65823">
        <ele>402.3</ele>
      </trkpt>
      <trkpt lat="45.61753" lon="4.65858">
        <ele>394.6</ele>
      </trkpt>
      <trkpt lat="45.61806" lon="4.65967">
        <ele>391.6</ele>
      </trkpt>
      <trkpt lat="45.618" lon="4.66023">
        <ele>387.2</ele>
      </trkpt>
      <trkpt lat="45.61802" lon="4.66074">
        <ele>383.8</ele>
      </trkpt>
      <trkpt lat="45.61805" lon="4.66163">
        <ele>379.4</ele>
      </trkpt>
      <trkpt lat="45.61778" lon="4.66254">
        <ele>375.3</ele>
      </trkpt>
      <trkpt lat="45.61742" lon="4.66347">
        <ele>371.7</ele>
      </trkpt>
      <trkpt lat="45.61731" lon="4.66408">
        <ele>369.8</ele>
      </trkpt>
      <trkpt lat="45.61699" lon="4.66523">
        <ele>368</ele>
      </trkpt>
      <trkpt lat="45.61741" lon="4.66665">
        <ele>359.5</ele>
      </trkpt>
      <trkpt lat="45.61757" lon="4.66697">
        <ele>355.7</ele>
      </trkpt>
      <trkpt lat="45.61798" lon="4.66765">
        <ele>346.5</ele>
      </trkpt>
      <trkpt lat="45.61831" lon="4.66779">
        <ele>343.4</ele>
      </trkpt>
      <trkpt lat="45.61862" lon="4.66801">
        <ele>342.6</ele>
      </trkpt>
      <trkpt lat="45.6187" lon="4.66801">
        <ele>342.8</ele>
      </trkpt>
      <trkpt lat="45.61886" lon="4.66814">
        <ele>343.2</ele>
      </trkpt>
      <trkpt lat="45.61886" lon="4.66829">
        <ele>343.1</ele>
      </trkpt>
      <trkpt lat="45.61897" lon="4.66852">
        <ele>345.8</ele>
      </trkpt>
      <trkpt lat="45.61884" lon="4.66879">
        <ele>347.4</ele>
      </trkpt>
      <trkpt lat="45.61847" lon="4.66929">
        <ele>347.7</ele>
      </trkpt>
      <trkpt lat="45.61848" lon="4.66941">
        <ele>348.9</ele>
      </trkpt>
      <trkpt lat="45.61844" lon="4.66948">
        <ele>349</ele>
      </trkpt>
      <trkpt lat="45.61827" lon="4.66983">
        <ele>350</ele>
      </trkpt>
      <trkpt lat="45.61828" lon="4.66989">
        <ele>350.6</ele>
      </trkpt>
      <trkpt lat="45.61845" lon="4.66983">
        <ele>352.2</ele>
      </trkpt>
      <trkpt lat="45.61848" lon="4.66991">
        <ele>353.3</ele>
      </trkpt>
      <trkpt lat="45.6186" lon="4.66976">
        <ele>353.6</ele>
      </trkpt>
      <trkpt lat="45.6193" lon="4.66989">
        <ele>364.1</ele>
      </trkpt>
      <trkpt lat="45.61929" lon="4.67044">
        <ele>367</ele>
      </trkpt>
      <trkpt lat="45.6194" lon="4.67082">
        <ele>369.3</ele>
      </trkpt>
      <trkpt lat="45.61929" lon="4.6713">
        <ele>368.9</ele>
      </trkpt>
      <trkpt lat="45.61975" lon="4.67181">
        <ele>368.9</ele>
        <time>2019-06-28T23:51:10Z</time>
      </trkpt>
    </trkseg>
  </trk>
</gpx>